Home > Products > Valid Products > TAF

000
FTUS41 KBOX 201120
TAFPVD
TAF
KPVD 201120Z 2012/2112 27006KT P6SM FEW250
     FM201700 23010KT P6SM BKN110
     FM210000 22006KT P6SM BKN140
     FM210500 20004KT P6SM BKN025=



000
FTUS41 KBOX 201120
TAFMHT
TAF
KMHT 201120Z 2012/2112 24005KT P6SM SCT150
     FM210000 VRB03KT P6SM BKN100=



000
FTUS41 KBOX 201120
TAFBAF
TAF
KBAF 201120Z 2012/2112 00000KT P6SM BKN150
     FM201600 22006KT P6SM BKN110
     FM202300 18006KT P6SM BKN140
     FM210400 00000KT P6SM BKN040=



000
FTUS41 KBOX 201120
TAFBDL
TAF
KBDL 201120Z 2012/2118 22004KT P6SM BKN140
     FM201600 21007KT P6SM BKN110
     FM210400 VRB03KT P6SM BKN040
     FM211600 VRB03KT P6SM OVC025=



000
FTUS41 KBOX 201120
TAFMHT
TAF
KMHT 201120Z 2012/2112 24005KT P6SM SCT150
     FM210000 VRB03KT P6SM BKN100=



000
FTUS41 KBOX 201120
TAFBOS
TAF
KBOS 201120Z 2012/2118 26007KT P6SM FEW250
     FM210000 23008KT P6SM BKN100
     FM210600 20004KT P6SM BKN025
     FM211100 13006KT P6SM OVC025
     FM211700 12010KT P6SM OVC025=



000
FTUS41 KBOX 201120
TAFORH
TAF
KORH 201120Z 2012/2112 25006KT P6SM SCT250
     FM201600 25010KT P6SM SCT110
     FM210000 22008KT P6SM BKN100
     FM210600 20004KT P6SM BKN040
     FM211100 VRB03KT P6SM OVC025=



000
FTUS41 KBOX 201120
TAFACK
TAF
KACK 201120Z 2012/2112 30007KT P6SM FEW250
     FM201600 26012KT P6SM SCT200
     FM210300 22011KT P6SM BKN200
     FM210900 18011KT P6SM BKN200=



000
FTUS41 KBOX 201120
TAFACK
TAF
KACK 201120Z 2012/2112 30007KT P6SM FEW250
     FM201600 26012KT P6SM SCT200
     FM210300 22011KT P6SM BKN200
     FM210900 18011KT P6SM BKN200=



000
FTUS41 KBOX 201120
TAFPVD
TAF
KPVD 201120Z 2012/2112 27006KT P6SM FEW250
     FM201700 23010KT P6SM BKN110
     FM210000 22006KT P6SM BKN140
     FM210500 20004KT P6SM BKN025=



000
FTUS41 KBOX 201120
TAFBDL
TAF
KBDL 201120Z 2012/2118 22004KT P6SM BKN140
     FM201600 21007KT P6SM BKN110
     FM210400 VRB03KT P6SM BKN040
     FM211600 VRB03KT P6SM OVC025=



000
FTUS41 KBOX 201120
TAFBAF
TAF
KBAF 201120Z 2012/2112 00000KT P6SM BKN150
     FM201600 22006KT P6SM BKN110
     FM202300 18006KT P6SM BKN140
     FM210400 00000KT P6SM BKN040=



000
FTUS41 KBOX 201120
TAFORH
TAF
KORH 201120Z 2012/2112 25006KT P6SM SCT250
     FM201600 25010KT P6SM SCT110
     FM210000 22008KT P6SM BKN100
     FM210600 20004KT P6SM BKN040
     FM211100 VRB03KT P6SM OVC025=



000
FTUS41 KBOX 201120
TAFBOS
TAF
KBOS 201120Z 2012/2118 26007KT P6SM FEW250
     FM210000 23008KT P6SM BKN100
     FM210600 20004KT P6SM BKN025
     FM211100 13006KT P6SM OVC025
     FM211700 12010KT P6SM OVC025=



000
FTUS41 KBOX 200837 AAA
TAFPVD
TAF AMD
KPVD 200837Z 2009/2106 29004KT P6SM FEW150
     FM201600 24008KT P6SM SCT110
     FM201800 23010KT P6SM BKN100
     FM210300 21005KT P6SM BKN150
     FM210500 20004KT P6SM BKN025=



000
FTUS41 KBOX 200836 AAA
TAFMHT
TAF AMD
KMHT 200836Z 2009/2106 VRB03KT P6SM SCT120
     FM201800 24007KT P6SM SCT120
     FM202300 19004KT P6SM BKN110
     FM210400 00000KT P6SM BKN110=



000
FTUS41 KBOX 200836 AAA
TAFMHT
TAF AMD
KMHT 200836Z 2009/2106 VRB03KT P6SM SCT120
     FM201800 24007KT P6SM SCT120
     FM202300 19004KT P6SM BKN110
     FM210400 00000KT P6SM BKN110=



000
FTUS41 KBOX 200836 AAA
TAFBDL
TAF AMD
KBDL 200836Z 2009/2112 00000KT P6SM SCT150
     FM201600 21007KT P6SM BKN120
     FM210400 VRB03KT P6SM BKN040=



000
FTUS41 KBOX 200836 AAA
TAFBDL
TAF AMD
KBDL 200836Z 2009/2112 00000KT P6SM SCT150
     FM201600 21007KT P6SM BKN120
     FM210400 VRB03KT P6SM BKN040=



000
FTUS41 KBOX 200835 AAA
TAFBOS
TAF AMD
KBOS 200835Z 2009/2112 29008KT P6SM SCT140
     FM201500 25008KT P6SM SCT120
     FM202300 23008KT P6SM BKN100
     FM210600 20004KT P6SM BKN050
     FM210800 18005KT P6SM BKN025=



000
FTUS41 KBOX 200835 AAA
TAFBOS
TAF AMD
KBOS 200835Z 2009/2112 29008KT P6SM SCT140
     FM201500 25008KT P6SM SCT120
     FM202300 23008KT P6SM BKN100
     FM210600 20004KT P6SM BKN050
     FM210800 18005KT P6SM BKN025=



000
FTUS41 KBOX 200522
TAFBDL
TAF
KBDL 200522Z 2006/2112 30004KT P6SM BKN140
     FM200900 VRB04KT P6SM SCT150
     FM201600 21007KT P6SM BKN120
     FM210400 VRB03KT P6SM BKN040=



000
FTUS41 KBOX 200522
TAFBOS
TAF
KBOS 200522Z 2006/2112 29010KT P6SM SKC
     FM201400 26008KT P6SM SCT130
     FM202300 23008KT P6SM BKN100
     FM210600 20004KT P6SM BKN050
     FM210800 18005KT P6SM BKN025=



000
FTUS41 KBOX 200522
TAFORH
TAF
KORH 200522Z 2006/2106 30011KT P6SM SCT150
     FM201100 26006KT P6SM SCT120
     FM201600 25012KT P6SM SCT130
     FM202100 23010KT P6SM BKN110
     FM210300 21006KT P6SM BKN130=



000
FTUS41 KBOX 200522
TAFMHT
TAF
KMHT 200522Z 2006/2106 30004KT P6SM SKC
     FM201700 24006KT P6SM SCT120
     FM202300 19004KT P6SM BKN110
     FM210400 00000KT P6SM BKN110=



000
FTUS41 KBOX 200522
TAFACK
TAF
KACK 200522Z 2006/2106 32015KT P6SM BKN050
     FM201200 30009KT P6SM SCT150
     FM201600 26012KT P6SM SCT120
     FM210300 22011KT P6SM BKN200=



000
FTUS41 KBOX 200522
TAFBAF
TAF
KBAF 200522Z 2006/2106 29004KT P6SM BKN140
     FM200900 VRB04KT P6SM SCT150
     FM201600 22006KT P6SM BKN130
     FM202300 18006KT P6SM BKN100
     FM210400 00000KT P6SM BKN040=



000
FTUS41 KBOX 200522
TAFPVD
TAF
KPVD 200522Z 2006/2106 31010KT P6SM SCT150
     FM201400 26006KT P6SM SCT120
     FM201700 23009KT P6SM BKN100
     FM210300 21005KT P6SM BKN150
     FM210500 20004KT P6SM BKN025=



000
FTUS41 KBOX 200522
TAFBOS
TAF
KBOS 200522Z 2006/2112 29010KT P6SM SKC
     FM201400 26008KT P6SM SCT130
     FM202300 23008KT P6SM BKN100
     FM210600 20004KT P6SM BKN050
     FM210800 18005KT P6SM BKN025=



000
FTUS41 KBOX 200522
TAFACK
TAF
KACK 200522Z 2006/2106 32015KT P6SM BKN050
     FM201200 30009KT P6SM SCT150
     FM201600 26012KT P6SM SCT120
     FM210300 22011KT P6SM BKN200=



000
FTUS41 KBOX 200522
TAFBAF
TAF
KBAF 200522Z 2006/2106 29004KT P6SM BKN140
     FM200900 VRB04KT P6SM SCT150
     FM201600 22006KT P6SM BKN130
     FM202300 18006KT P6SM BKN100
     FM210400 00000KT P6SM BKN040=



000
FTUS41 KBOX 200522
TAFORH
TAF
KORH 200522Z 2006/2106 30011KT P6SM SCT150
     FM201100 26006KT P6SM SCT120
     FM201600 25012KT P6SM SCT130
     FM202100 23010KT P6SM BKN110
     FM210300 21006KT P6SM BKN130=



000
FTUS41 KBOX 200522
TAFMHT
TAF
KMHT 200522Z 2006/2106 30004KT P6SM SKC
     FM201700 24006KT P6SM SCT120
     FM202300 19004KT P6SM BKN110
     FM210400 00000KT P6SM BKN110=



000
FTUS41 KBOX 200522
TAFBDL
TAF
KBDL 200522Z 2006/2112 30004KT P6SM BKN140
     FM200900 VRB04KT P6SM SCT150
     FM201600 21007KT P6SM BKN120
     FM210400 VRB03KT P6SM BKN040=



000
FTUS41 KBOX 200522
TAFPVD
TAF
KPVD 200522Z 2006/2106 31010KT P6SM SCT150
     FM201400 26006KT P6SM SCT120
     FM201700 23009KT P6SM BKN100
     FM210300 21005KT P6SM BKN150
     FM210500 20004KT P6SM BKN025=



000
FTUS41 KBOX 200522
TAFPVD
TAF
KPVD 200522Z 2006/2106 31010KT P6SM SCT150
     FM201400 26006KT P6SM SCT120
     FM201700 23009KT P6SM BKN100
     FM210300 21005KT P6SM BKN150
     FM210500 20004KT P6SM BKN025=



000
FTUS41 KBOX 200522
TAFBDL
TAF
KBDL 200522Z 2006/2112 30004KT P6SM BKN140
     FM200900 VRB04KT P6SM SCT150
     FM201600 21007KT P6SM BKN120
     FM210400 VRB03KT P6SM BKN040=



000
FTUS41 KBOX 200522
TAFORH
TAF
KORH 200522Z 2006/2106 30011KT P6SM SCT150
     FM201100 26006KT P6SM SCT120
     FM201600 25012KT P6SM SCT130
     FM202100 23010KT P6SM BKN110
     FM210300 21006KT P6SM BKN130=



000
FTUS41 KBOX 200522
TAFACK
TAF
KACK 200522Z 2006/2106 32015KT P6SM BKN050
     FM201200 30009KT P6SM SCT150
     FM201600 26012KT P6SM SCT120
     FM210300 22011KT P6SM BKN200=



000
FTUS41 KBOX 200522
TAFMHT
TAF
KMHT 200522Z 2006/2106 30004KT P6SM SKC
     FM201700 24006KT P6SM SCT120
     FM202300 19004KT P6SM BKN110
     FM210400 00000KT P6SM BKN110=



000
FTUS41 KBOX 200522
TAFBAF
TAF
KBAF 200522Z 2006/2106 29004KT P6SM BKN140
     FM200900 VRB04KT P6SM SCT150
     FM201600 22006KT P6SM BKN130
     FM202300 18006KT P6SM BKN100
     FM210400 00000KT P6SM BKN040=



000
FTUS41 KBOX 200522
TAFBOS
TAF
KBOS 200522Z 2006/2112 29010KT P6SM SKC
     FM201400 26008KT P6SM SCT130
     FM202300 23008KT P6SM BKN100
     FM210600 20004KT P6SM BKN050
     FM210800 18005KT P6SM BKN025=



000
FTUS41 KBOX 200305 AAA
TAFPVD
TAF AMD
KPVD 200305Z 2003/2024 31012KT P6SM FEW250
     FM200600 30004KT P6SM SKC
     FM201300 27006KT P6SM SCT120
     FM201800 23008KT P6SM SCT120=



000
FTUS41 KBOX 200305 AAA
TAFPVD
TAF AMD
KPVD 200305Z 2003/2024 31012KT P6SM FEW250
     FM200600 30004KT P6SM SKC
     FM201300 27006KT P6SM SCT120
     FM201800 23008KT P6SM SCT120=



000
FTUS41 KBOX 200303 AAA
TAFBDL
TAF AMD
KBDL 200303Z 2003/2106 31006KT P6SM SKC
     FM200900 00000KT P6SM SCT150
     FM201300 24004KT P6SM SCT120
     FM201600 23006KT P6SM BKN110=



000
FTUS41 KBOX 200303 AAA
TAFBDL
TAF AMD
KBDL 200303Z 2003/2106 31006KT P6SM SKC
     FM200900 00000KT P6SM SCT150
     FM201300 24004KT P6SM SCT120
     FM201600 23006KT P6SM BKN110=



000
FTUS41 KBOX 200303 AAA
TAFMHT
TAF AMD
KMHT 200303Z 2003/2024 30007KT P6SM SKC
     FM200800 VRB03KT P6SM SCT150
     FM201200 VRB03KT P6SM FEW250
     FM201700 25006KT P6SM SCT120=



000
FTUS41 KBOX 200303 AAA
TAFMHT
TAF AMD
KMHT 200303Z 2003/2024 30007KT P6SM SKC
     FM200800 VRB03KT P6SM SCT150
     FM201200 VRB03KT P6SM FEW250
     FM201700 25006KT P6SM SCT120=



000
FTUS41 KBOX 200300 AAA
TAFBOS
TAF AMD
KBOS 200300Z 2003/2106 32012KT P6SM FEW050
     FM200600 30009KT P6SM SKC
     FM201000 29008KT P6SM FEW140
     FM201200 26006KT P6SM FEW130
     FM202200 22007KT P6SM BKN130=



000
FTUS41 KBOX 192337
TAFMHT
TAF
KMHT 192337Z 2000/2024 31010KT P6SM BKN060
     FM200500 30004KT P6SM SKC
     FM200800 00000KT P6SM SKC
     FM201200 VRB03KT P6SM FEW250
     FM201700 25006KT P6SM SCT120=



000
FTUS41 KBOX 192337
TAFORH
TAF
KORH 192337Z 2000/2024 31009KT P6SM BKN050
     FM200500 29007KT P6SM SKC
     FM200900 27006KT P6SM SKC
     FM202000 23007KT P6SM SCT120=



000
FTUS41 KBOX 192337
TAFBDL
TAF
KBDL 192337Z 2000/2106 31015G24KT P6SM SCT060
     FM200300 32006KT P6SM SKC
     FM200700 VRB03KT P6SM SKC
     FM201300 24004KT P6SM SCT120
     FM201600 23006KT P6SM BKN110=



000
FTUS41 KBOX 192337
TAFACK
TAF
KACK 192337Z 2000/2024 32012G24KT P6SM BKN060
     FM200200 32014G24KT P6SM SCT250
     FM200700 31011KT P6SM FEW250
     FM201600 27011KT P6SM SCT120=



000
FTUS41 KBOX 192337
TAFBAF
TAF
KBAF 192337Z 2000/2024 31012G22KT P6SM FEW060
     FM200300 32004KT P6SM SKC
     FM200700 00000KT P6SM SKC
     FM201500 23004KT P6SM SCT110
     FM201600 23005KT P6SM BKN100=



000
FTUS41 KBOX 192337
TAFBOS
TAF
KBOS 192337Z 2000/2106 32015G22KT P6SM OVC060
     FM200400 31012KT P6SM FEW050
     FM200600 30009KT P6SM SKC
     FM201200 26006KT P6SM FEW130
     FM202200 22007KT P6SM BKN130=



000
FTUS41 KBOX 192337
TAFPVD
TAF
KPVD 192337Z 2000/2024 31009KT P6SM FEW060
     FM200200 31008KT P6SM FEW250
     FM200500 30004KT P6SM SKC
     FM201300 27006KT P6SM SCT120
     FM201800 23008KT P6SM SCT120=



000
FTUS41 KBOX 192337
TAFBDL
TAF
KBDL 192337Z 2000/2106 31015G24KT P6SM SCT060
     FM200300 32006KT P6SM SKC
     FM200700 VRB03KT P6SM SKC
     FM201300 24004KT P6SM SCT120
     FM201600 23006KT P6SM BKN110=



000
FTUS41 KBOX 192337
TAFPVD
TAF
KPVD 192337Z 2000/2024 31009KT P6SM FEW060
     FM200200 31008KT P6SM FEW250
     FM200500 30004KT P6SM SKC
     FM201300 27006KT P6SM SCT120
     FM201800 23008KT P6SM SCT120=



000
FTUS41 KBOX 192337
TAFORH
TAF
KORH 192337Z 2000/2024 31009KT P6SM BKN050
     FM200500 29007KT P6SM SKC
     FM200900 27006KT P6SM SKC
     FM202000 23007KT P6SM SCT120=



000
FTUS41 KBOX 192337
TAFBOS
TAF
KBOS 192337Z 2000/2106 32015G22KT P6SM OVC060
     FM200400 31012KT P6SM FEW050
     FM200600 30009KT P6SM SKC
     FM201200 26006KT P6SM FEW130
     FM202200 22007KT P6SM BKN130=



000
FTUS41 KBOX 192337
TAFACK
TAF
KACK 192337Z 2000/2024 32012G24KT P6SM BKN060
     FM200200 32014G24KT P6SM SCT250
     FM200700 31011KT P6SM FEW250
     FM201600 27011KT P6SM SCT120=



000
FTUS41 KBOX 192337
TAFMHT
TAF
KMHT 192337Z 2000/2024 31010KT P6SM BKN060
     FM200500 30004KT P6SM SKC
     FM200800 00000KT P6SM SKC
     FM201200 VRB03KT P6SM FEW250
     FM201700 25006KT P6SM SCT120=



000
FTUS41 KBOX 192337
TAFBAF
TAF
KBAF 192337Z 2000/2024 31012G22KT P6SM FEW060
     FM200300 32004KT P6SM SKC
     FM200700 00000KT P6SM SKC
     FM201500 23004KT P6SM SCT110
     FM201600 23005KT P6SM BKN100=



000
FTUS41 KBOX 192337
TAFBOS
TAF
KBOS 192337Z 2000/2106 32015G22KT P6SM OVC060
     FM200400 31012KT P6SM FEW050
     FM200600 30009KT P6SM SKC
     FM201200 26006KT P6SM FEW130
     FM202200 22007KT P6SM BKN130=



000
FTUS41 KBOX 192337
TAFACK
TAF
KACK 192337Z 2000/2024 32012G24KT P6SM BKN060
     FM200200 32014G24KT P6SM SCT250
     FM200700 31011KT P6SM FEW250
     FM201600 27011KT P6SM SCT120=



000
FTUS41 KBOX 192337
TAFBAF
TAF
KBAF 192337Z 2000/2024 31012G22KT P6SM FEW060
     FM200300 32004KT P6SM SKC
     FM200700 00000KT P6SM SKC
     FM201500 23004KT P6SM SCT110
     FM201600 23005KT P6SM BKN100=



000
FTUS41 KBOX 192337
TAFBDL
TAF
KBDL 192337Z 2000/2106 31015G24KT P6SM SCT060
     FM200300 32006KT P6SM SKC
     FM200700 VRB03KT P6SM SKC
     FM201300 24004KT P6SM SCT120
     FM201600 23006KT P6SM BKN110=



000
FTUS41 KBOX 192337
TAFORH
TAF
KORH 192337Z 2000/2024 31009KT P6SM BKN050
     FM200500 29007KT P6SM SKC
     FM200900 27006KT P6SM SKC
     FM202000 23007KT P6SM SCT120=



000
FTUS41 KBOX 192337
TAFPVD
TAF
KPVD 192337Z 2000/2024 31009KT P6SM FEW060
     FM200200 31008KT P6SM FEW250
     FM200500 30004KT P6SM SKC
     FM201300 27006KT P6SM SCT120
     FM201800 23008KT P6SM SCT120=



000
FTUS41 KBOX 192337
TAFMHT
TAF
KMHT 192337Z 2000/2024 31010KT P6SM BKN060
     FM200500 30004KT P6SM SKC
     FM200800 00000KT P6SM SKC
     FM201200 VRB03KT P6SM FEW250
     FM201700 25006KT P6SM SCT120=



000
FTUS41 KBOX 192337
TAFBDL
TAF
KBDL 192337Z 2000/2106 31015G24KT P6SM SCT060
     FM200300 32006KT P6SM SKC
     FM200700 VRB03KT P6SM SKC
     FM201300 24004KT P6SM SCT120
     FM201600 23006KT P6SM BKN110=



000
FTUS41 KBOX 192337
TAFBAF
TAF
KBAF 192337Z 2000/2024 31012G22KT P6SM FEW060
     FM200300 32004KT P6SM SKC
     FM200700 00000KT P6SM SKC
     FM201500 23004KT P6SM SCT110
     FM201600 23005KT P6SM BKN100=



000
FTUS41 KBOX 192337
TAFPVD
TAF
KPVD 192337Z 2000/2024 31009KT P6SM FEW060
     FM200200 31008KT P6SM FEW250
     FM200500 30004KT P6SM SKC
     FM201300 27006KT P6SM SCT120
     FM201800 23008KT P6SM SCT120=



000
FTUS41 KBOX 192337
TAFORH
TAF
KORH 192337Z 2000/2024 31009KT P6SM BKN050
     FM200500 29007KT P6SM SKC
     FM200900 27006KT P6SM SKC
     FM202000 23007KT P6SM SCT120=



000
FTUS41 KBOX 192337
TAFMHT
TAF
KMHT 192337Z 2000/2024 31010KT P6SM BKN060
     FM200500 30004KT P6SM SKC
     FM200800 00000KT P6SM SKC
     FM201200 VRB03KT P6SM FEW250
     FM201700 25006KT P6SM SCT120=



000
FTUS41 KBOX 192337
TAFACK
TAF
KACK 192337Z 2000/2024 32012G24KT P6SM BKN060
     FM200200 32014G24KT P6SM SCT250
     FM200700 31011KT P6SM FEW250
     FM201600 27011KT P6SM SCT120=



000
FTUS41 KBOX 192337
TAFBOS
TAF
KBOS 192337Z 2000/2106 32015G22KT P6SM OVC060
     FM200400 31012KT P6SM FEW050
     FM200600 30009KT P6SM SKC
     FM201200 26006KT P6SM FEW130
     FM202200 22007KT P6SM BKN130=



000
FTUS41 KBOX 192039 AAA
TAFMHT
TAF AMD
KMHT 192039Z 1921/2018 31009KT P6SM BKN050
     FM200100 31008KT P6SM SCT050
     FM200400 30005KT P6SM SKC
     FM201600 24006KT P6SM SCT150=



000
FTUS41 KBOX 192039 AAA
TAFBOS
TAF AMD
KBOS 192039Z 1921/2024 32012G23KT P6SM BKN050
     FM200100 30012KT P6SM SCT050
     FM200700 29008KT P6SM SKC
     FM201500 25008KT P6SM FEW120=



000
FTUS41 KBOX 192039 AAA
TAFBAF
TAF AMD
KBAF 192039Z 1921/2018 31012G22KT P6SM BKN050
     FM200000 31008KT P6SM SCT050
     FM200500 00000KT P6SM SKC
     FM201600 23005KT P6SM BKN100=



000
FTUS41 KBOX 192039 AAA
TAFPVD
TAF AMD
KPVD 192039Z 1921/2018 32009KT P6SM BKN050
     FM200000 31008KT P6SM SCT050
     FM200300 31008KT P6SM SKC
     FM201300 27006KT P6SM SCT120=



000
FTUS41 KBOX 192039 AAA
TAFORH
TAF AMD
KORH 192039Z 1921/2018 31012G24KT P6SM BKN045
     FM200100 31008KT P6SM SCT045
     FM200500 27006KT P6SM SKC
     FM201600 23005KT P6SM SCT120=



000
FTUS41 KBOX 192039 AAA
TAFACK
TAF AMD
KACK 192039Z 1921/2018 33014G24KT P6SM BKN040
     FM200100 32014KT P6SM SCT040
     FM200700 30010KT P6SM SKC
     FM201400 26012KT P6SM SCT110=



000
FTUS41 KBOX 192039 AAA
TAFBAF
TAF AMD
KBAF 192039Z 1921/2018 31012G22KT P6SM BKN050
     FM200000 31008KT P6SM SCT050
     FM200500 00000KT P6SM SKC
     FM201600 23005KT P6SM BKN100=



000
FTUS41 KBOX 192039 AAA
TAFBDL
TAF AMD
KBDL 192039Z 1921/2024 32012G22KT P6SM BKN050
     FM200000 30007KT P6SM SCT050
     FM200600 VRB03KT P6SM SKC
     FM201600 23006KT P6SM BKN110=



000
FTUS41 KBOX 192039 AAA
TAFORH
TAF AMD
KORH 192039Z 1921/2018 31012G24KT P6SM BKN045
     FM200100 31008KT P6SM SCT045
     FM200500 27006KT P6SM SKC
     FM201600 23005KT P6SM SCT120=



000
FTUS41 KBOX 192039 AAA
TAFMHT
TAF AMD
KMHT 192039Z 1921/2018 31009KT P6SM BKN050
     FM200100 31008KT P6SM SCT050
     FM200400 30005KT P6SM SKC
     FM201600 24006KT P6SM SCT150=



000
FTUS41 KBOX 192039 AAA
TAFBDL
TAF AMD
KBDL 192039Z 1921/2024 32012G22KT P6SM BKN050
     FM200000 30007KT P6SM SCT050
     FM200600 VRB03KT P6SM SKC
     FM201600 23006KT P6SM BKN110=



000
FTUS41 KBOX 192039 AAA
TAFPVD
TAF AMD
KPVD 192039Z 1921/2018 32009KT P6SM BKN050
     FM200000 31008KT P6SM SCT050
     FM200300 31008KT P6SM SKC
     FM201300 27006KT P6SM SCT120=



000
FTUS41 KBOX 192039 AAA
TAFACK
TAF AMD
KACK 192039Z 1921/2018 33014G24KT P6SM BKN040
     FM200100 32014KT P6SM SCT040
     FM200700 30010KT P6SM SKC
     FM201400 26012KT P6SM SCT110=



000
FTUS41 KBOX 192039 AAA
TAFBOS
TAF AMD
KBOS 192039Z 1921/2024 32012G23KT P6SM BKN050
     FM200100 30012KT P6SM SCT050
     FM200700 29008KT P6SM SKC
     FM201500 25008KT P6SM FEW120=



000
FTUS41 KBOX 191721
TAFBOS
TAF
KBOS 191721Z 1918/2024 32011G22KT P6SM SCT045 BKN080
     FM200000 31010KT P6SM SKC
     FM201000 27007KT P6SM FEW150
     FM202000 23008KT P6SM SCT120=



000
FTUS41 KBOX 191721
TAFMHT
TAF
KMHT 191721Z 1918/2018 32012G25KT P6SM SCT045
     FM200000 31008KT P6SM SKC
     FM200600 29004KT P6SM SKC
     FM201300 26005KT P6SM SCT150=



000
FTUS41 KBOX 191721
TAFBDL
TAF
KBDL 191721Z 1918/2024 32014G23KT P6SM BKN045
     FM200000 31005KT P6SM SKC
     FM201100 24004KT P6SM SCT120
     FM201600 23006KT P6SM BKN110=



000
FTUS41 KBOX 191721
TAFORH
TAF
KORH 191721Z 1918/2018 32014G24KT P6SM BKN040
     FM192300 31010KT P6SM SCT040
     FM200200 30005KT P6SM SKC
     FM201100 26006KT P6SM FEW130=



000
FTUS41 KBOX 191721
TAFBAF
TAF
KBAF 191721Z 1918/2018 32012G24KT P6SM BKN045
     FM200000 31008KT P6SM SKC
     FM201100 00000KT P6SM FEW150
     FM201600 23005KT P6SM BKN100=



000
FTUS41 KBOX 191721
TAFPVD
TAF
KPVD 191721Z 1918/2018 32012G22KT P6SM SCT045
     FM200100 31008KT P6SM SKC
     FM201200 27006KT P6SM SCT120=



000
FTUS41 KBOX 191721
TAFACK
TAF
KACK 191721Z 1918/2018 33014G27KT P6SM SCT045 BKN090
     FM200100 32014KT P6SM SKC
     FM201000 28010KT P6SM FEW150=



000
FTUS41 KBOX 191721
TAFPVD
TAF
KPVD 191721Z 1918/2018 32012G22KT P6SM SCT045
     FM200100 31008KT P6SM SKC
     FM201200 27006KT P6SM SCT120=



000
FTUS41 KBOX 191721
TAFBOS
TAF
KBOS 191721Z 1918/2024 32011G22KT P6SM SCT045 BKN080
     FM200000 31010KT P6SM SKC
     FM201000 27007KT P6SM FEW150
     FM202000 23008KT P6SM SCT120=



000
FTUS41 KBOX 191721
TAFMHT
TAF
KMHT 191721Z 1918/2018 32012G25KT P6SM SCT045
     FM200000 31008KT P6SM SKC
     FM200600 29004KT P6SM SKC
     FM201300 26005KT P6SM SCT150=



000
FTUS41 KBOX 191721
TAFORH
TAF
KORH 191721Z 1918/2018 32014G24KT P6SM BKN040
     FM192300 31010KT P6SM SCT040
     FM200200 30005KT P6SM SKC
     FM201100 26006KT P6SM FEW130=



000
FTUS41 KBOX 191721
TAFBDL
TAF
KBDL 191721Z 1918/2024 32014G23KT P6SM BKN045
     FM200000 31005KT P6SM SKC
     FM201100 24004KT P6SM SCT120
     FM201600 23006KT P6SM BKN110=



000
FTUS41 KBOX 191721
TAFBAF
TAF
KBAF 191721Z 1918/2018 32012G24KT P6SM BKN045
     FM200000 31008KT P6SM SKC
     FM201100 00000KT P6SM FEW150
     FM201600 23005KT P6SM BKN100=



000
FTUS41 KBOX 191721
TAFACK
TAF
KACK 191721Z 1918/2018 33014G27KT P6SM SCT045 BKN090
     FM200100 32014KT P6SM SKC
     FM201000 28010KT P6SM FEW150=



000
FTUS41 KBOX 191504 AAA
TAFACK
TAF AMD
KACK 191504Z 1915/2012 34012KT P6SM BKN025
     FM192200 32015G22KT P6SM SCT040
     FM200600 32012KT P6SM SCT250=



000
FTUS41 KBOX 191504 AAA
TAFACK
TAF AMD
KACK 191504Z 1915/2012 34012KT P6SM BKN025
     FM192200 32015G22KT P6SM SCT040
     FM200600 32012KT P6SM SCT250=



000
FTUS41 KBOX 191503 AAA
TAFBAF
TAF AMD
KBAF 191503Z 1915/2012 34011G20KT P6SM BKN040
     FM192000 32012G21KT P6SM SCT045
     FM192300 31010KT P6SM FEW250
     FM200300 31005KT P6SM FEW150=



000
FTUS41 KBOX 191502 AAA
TAFPVD
TAF AMD
KPVD 191502Z 1915/2012 33010G20KT P6SM BKN080
     FM192200 32011KT P6SM SCT045
     FM200100 31009KT P6SM SCT250
     FM200900 29005KT P6SM FEW150=



000
FTUS41 KBOX 191502 AAA
TAFPVD
TAF AMD
KPVD 191502Z 1915/2012 33010G20KT P6SM BKN080
     FM192200 32011KT P6SM SCT045
     FM200100 31009KT P6SM SCT250
     FM200900 29005KT P6SM FEW150=



000
FTUS41 KBOX 191501 AAA
TAFBDL
TAF AMD
KBDL 191501Z 1915/2018 32011G22KT P6SM SCT040 BKN090
     FM192000 32012G21KT P6SM SCT045
     FM200300 30005KT P6SM FEW150
     FM201100 00000KT P6SM SCT130
     FM201600 23006KT P6SM BKN110=



000
FTUS41 KBOX 191501 AAA
TAFBDL
TAF AMD
KBDL 191501Z 1915/2018 32011G22KT P6SM SCT040 BKN090
     FM192000 32012G21KT P6SM SCT045
     FM200300 30005KT P6SM FEW150
     FM201100 00000KT P6SM SCT130
     FM201600 23006KT P6SM BKN110=



000
FTUS41 KBOX 191501 AAA
TAFMHT
TAF AMD
KMHT 191501Z 1915/2012 32012G22KT P6SM OVC040
     FM192200 31011KT P6SM SCT045
     FM200300 30006KT P6SM FEW250=



000
FTUS41 KBOX 191501 AAA
TAFMHT
TAF AMD
KMHT 191501Z 1915/2012 32012G22KT P6SM OVC040
     FM192200 31011KT P6SM SCT045
     FM200300 30006KT P6SM FEW250=



000
FTUS41 KBOX 191500 AAA
TAFBOS
TAF AMD
KBOS 191500Z 1915/2018 32011G21KT P6SM SCT035 BKN070
     FM192200 31011G20KT P6SM SCT045
     FM200300 31010KT P6SM SCT250
     FM201000 27008KT P6SM FEW150=



000
FTUS41 KBOX 191500 AAA
TAFBOS
TAF AMD
KBOS 191500Z 1915/2018 32011G21KT P6SM SCT035 BKN070
     FM192200 31011G20KT P6SM SCT045
     FM200300 31010KT P6SM SCT250
     FM201000 27008KT P6SM FEW150=



000
FTUS41 KBOX 191120
TAFBOS
TAF
KBOS 191120Z 1912/2018 32011G19KT P6SM SCT035 BKN070
     FM192200 31011G20KT P6SM SCT045
     FM200300 31010KT P6SM SCT250
     FM201000 27008KT P6SM FEW150=



000
FTUS41 KBOX 191120
TAFMHT
TAF
KMHT 191120Z 1912/2012 32011G21KT P6SM SCT030 BKN080
     FM191500 32011G21KT P6SM OVC050
     FM192200 31011KT P6SM SCT045
     FM200300 30006KT P6SM FEW250=



000
FTUS41 KBOX 191120
TAFBDL
TAF
KBDL 191120Z 1912/2018 32011G20KT P6SM SCT040 BKN090
     FM191900 32012G21KT P6SM SCT045
     FM192300 31010KT P6SM FEW250
     FM200300 30005KT P6SM FEW150
     FM201100 00000KT P6SM SCT130
     FM201600 23006KT P6SM BKN110=



000
FTUS41 KBOX 191120
TAFACK
TAF
KACK 191120Z 1912/2012 30012KT P6SM BKN025
     FM192200 32015G22KT P6SM SCT040
     FM200600 32012KT P6SM SCT250=



000
FTUS41 KBOX 191120
TAFPVD
TAF
KPVD 191120Z 1912/2012 31010KT P6SM BKN035 OVC090
     FM191500 31010G20KT P6SM BKN060
     FM192200 32011KT P6SM SCT045
     FM200100 31009KT P6SM SCT250
     FM200900 29005KT P6SM FEW150=



000
FTUS41 KBOX 191120
TAFBAF
TAF
KBAF 191120Z 1912/2012 32011G19KT P6SM SCT040 BKN080
     FM191900 32012G21KT P6SM SCT045
     FM192300 31010KT P6SM FEW250
     FM200300 31005KT P6SM FEW150=



000
FTUS41 KBOX 191120
TAFBOS
TAF
KBOS 191120Z 1912/2018 32011G19KT P6SM SCT035 BKN070
     FM192200 31011G20KT P6SM SCT045
     FM200300 31010KT P6SM SCT250
     FM201000 27008KT P6SM FEW150=



000
FTUS41 KBOX 191120
TAFORH
TAF
KORH 191120Z 1912/2012 31010G18KT P6SM SCT035 OVC090
     FM192100 31011KT P6SM SCT045
     FM200100 31010KT P6SM SCT250
     FM200800 27008KT P6SM FEW150=



000
FTUS41 KBOX 191120
TAFBDL
TAF
KBDL 191120Z 1912/2018 32011G20KT P6SM SCT040 BKN090
     FM191900 32012G21KT P6SM SCT045
     FM192300 31010KT P6SM FEW250
     FM200300 30005KT P6SM FEW150
     FM201100 00000KT P6SM SCT130
     FM201600 23006KT P6SM BKN110=



000
FTUS41 KBOX 191120
TAFORH
TAF
KORH 191120Z 1912/2012 31010G18KT P6SM SCT035 OVC090
     FM192100 31011KT P6SM SCT045
     FM200100 31010KT P6SM SCT250
     FM200800 27008KT P6SM FEW150=



000
FTUS41 KBOX 191120
TAFMHT
TAF
KMHT 191120Z 1912/2012 32011G21KT P6SM SCT030 BKN080
     FM191500 32011G21KT P6SM OVC050
     FM192200 31011KT P6SM SCT045
     FM200300 30006KT P6SM FEW250=



000
FTUS41 KBOX 191120
TAFBAF
TAF
KBAF 191120Z 1912/2012 32011G19KT P6SM SCT040 BKN080
     FM191900 32012G21KT P6SM SCT045
     FM192300 31010KT P6SM FEW250
     FM200300 31005KT P6SM FEW150=



000
FTUS41 KBOX 191120
TAFPVD
TAF
KPVD 191120Z 1912/2012 31010KT P6SM BKN035 OVC090
     FM191500 31010G20KT P6SM BKN060
     FM192200 32011KT P6SM SCT045
     FM200100 31009KT P6SM SCT250
     FM200900 29005KT P6SM FEW150=



000
FTUS41 KBOX 191120
TAFACK
TAF
KACK 191120Z 1912/2012 30012KT P6SM BKN025
     FM192200 32015G22KT P6SM SCT040
     FM200600 32012KT P6SM SCT250=



000
FTUS41 KBOX 190828 AAA
TAFORH
TAF AMD
KORH 190828Z 1908/2006 31009KT P6SM SCT025 BKN035
     FM191400 32012G21KT P6SM BKN040
     FM192300 31011KT P6SM SCT045
     FM200100 31010KT P6SM SCT250=



000
FTUS41 KBOX 190828 AAA
TAFORH
TAF AMD
KORH 190828Z 1908/2006 31009KT P6SM SCT025 BKN035
     FM191400 32012G21KT P6SM BKN040
     FM192300 31011KT P6SM SCT045
     FM200100 31010KT P6SM SCT250=



000
FTUS41 KBOX 190827 AAA
TAFPVD
TAF AMD
KPVD 190827Z 1908/2006 28007KT P6SM SCT040 BKN050
     FM191500 32010G19KT P6SM BKN045
     FM192200 32011KT P6SM SCT045
     FM200100 31009KT P6SM SCT250=



000
FTUS41 KBOX 190827 AAA
TAFPVD
TAF AMD
KPVD 190827Z 1908/2006 28007KT P6SM SCT040 BKN050
     FM191500 32010G19KT P6SM BKN045
     FM192200 32011KT P6SM SCT045
     FM200100 31009KT P6SM SCT250=



000
FTUS41 KBOX 190826 AAA
TAFMHT
TAF AMD
KMHT 190826Z 1908/2006 31010KT P6SM SCT025 BKN045
     FM191400 32012G19KT P6SM OVC045
     FM192300 31011KT P6SM SCT045
     FM200300 30007KT P6SM FEW040=



000
FTUS41 KBOX 190826 AAA
TAFMHT
TAF AMD
KMHT 190826Z 1908/2006 31010KT P6SM SCT025 BKN045
     FM191400 32012G19KT P6SM OVC045
     FM192300 31011KT P6SM SCT045
     FM200300 30007KT P6SM FEW040=



000
FTUS41 KBOX 190825 AAA
TAFBDL
TAF AMD
KBDL 190825Z 1908/2012 31009KT P6SM SCT025 OVC035
     FM191400 32013G21KT P6SM BKN040
     FM192300 31010G18KT P6SM FEW250
     FM200300 30005KT P6SM FEW150
     FM201100 00000KT P6SM SCT130=



000
FTUS41 KBOX 190825 AAA
TAFBDL
TAF AMD
KBDL 190825Z 1908/2012 31009KT P6SM SCT025 OVC035
     FM191400 32013G21KT P6SM BKN040
     FM192300 31010G18KT P6SM FEW250
     FM200300 30005KT P6SM FEW150
     FM201100 00000KT P6SM SCT130=



000
FTUS41 KBOX 190824 AAA
TAFBOS
TAF AMD
KBOS 190824Z 1908/2012 30010KT P6SM SCT030 BKN040
     FM191500 32012G21KT P6SM OVC040
     FM200000 31011G20KT P6SM SCT045
     FM200100 31011G19KT P6SM SCT250
     FM201000 27008KT P6SM FEW150=



000
FTUS41 KBOX 190824 AAA
TAFBOS
TAF AMD
KBOS 190824Z 1908/2012 30010KT P6SM SCT030 BKN040
     FM191500 32012G21KT P6SM OVC040
     FM200000 31011G20KT P6SM SCT045
     FM200100 31011G19KT P6SM SCT250
     FM201000 27008KT P6SM FEW150=



000
FTUS41 KBOX 190525 CCA
TAFMHT
TAF COR
KMHT 190525Z 1906/2006 29006KT P6SM BKN025 BKN045
     FM191200 31011G19KT P6SM SCT020 OVC035
     FM191500 32012G19KT P6SM OVC045
     FM192300 31011KT P6SM SCT045
     FM200300 30007KT P6SM FEW040=



000
FTUS41 KBOX 190525 CCA
TAFMHT
TAF COR
KMHT 190525Z 1906/2006 29006KT P6SM BKN025 BKN045
     FM191200 31011G19KT P6SM SCT020 OVC035
     FM191500 32012G19KT P6SM OVC045
     FM192300 31011KT P6SM SCT045
     FM200300 30007KT P6SM FEW040=



000
FTUS41 KBOX 190520
TAFACK
TAF
KACK 190520Z 1906/2006 28010KT P6SM BKN050
     FM191100 30012KT P6SM BKN050
     FM191700 31013G25KT P6SM BKN050
     FM200200 32017G28KT P6SM SCT250=



000
FTUS41 KBOX 190520
TAFBAF
TAF
KBAF 190520Z 1906/2006 31006KT P6SM SCT025 BKN045
     FM191400 31010G19KT P6SM OVC035
     FM191800 32012G21KT P6SM SCT045
     FM192300 31010G18KT P6SM FEW250
     FM200300 31005KT P6SM FEW150=



000
FTUS41 KBOX 190520
TAFACK
TAF
KACK 190520Z 1906/2006 28010KT P6SM BKN050
     FM191100 30012KT P6SM BKN050
     FM191700 31013G25KT P6SM BKN050
     FM200200 32017G28KT P6SM SCT250=



000
FTUS41 KBOX 190520
TAFBDL
TAF
KBDL 190520Z 1906/2012 30005KT P6SM FEW030 BKN050
     FM191000 31009KT P6SM SCT025 OVC035
     FM191400 32013G21KT P6SM BKN040
     FM192300 31010G18KT P6SM FEW250
     FM200300 30005KT P6SM FEW150
     FM201100 00000KT P6SM SCT130=



000
FTUS41 KBOX 190520
TAFMHT
TAF
KMHT 190520Z 1906/2006 29006KT P6SM BKN035 BKN045
     FM191200 31011G19KT P6SM SCT020 OVC035
     FM191500 32012G19KT P6SM OVC045
     FM192300 31011KT P6SM SCT045
     FM200300 30007KT P6SM FEW040=



000
FTUS41 KBOX 190520
TAFORH
TAF
KORH 190520Z 1906/2006 28009KT P6SM SCT025 BKN050
     FM191400 32012G21KT P6SM BKN040
     FM192300 31011KT P6SM SCT045
     FM200100 31010KT P6SM SCT250=



000
FTUS41 KBOX 190520
TAFPVD
TAF
KPVD 190520Z 1906/2006 28007KT P6SM SCT040 BKN070
     FM191500 32010G18KT P6SM BKN045
     FM192200 32011KT P6SM SCT045
     FM200100 31009KT P6SM SCT250=



000
FTUS41 KBOX 190520
TAFBOS
TAF
KBOS 190520Z 1906/2012 27010KT P6SM BKN040
     FM191500 32012G21KT P6SM OVC040
     FM200000 31011G20KT P6SM SCT045
     FM200100 31011G19KT P6SM SCT250
     FM201000 27008KT P6SM FEW150=



000
FTUS41 KBOX 190520
TAFBOS
TAF
KBOS 190520Z 1906/2012 27010KT P6SM BKN040
     FM191500 32012G21KT P6SM OVC040
     FM200000 31011G20KT P6SM SCT045
     FM200100 31011G19KT P6SM SCT250
     FM201000 27008KT P6SM FEW150=



000
FTUS41 KBOX 190520
TAFORH
TAF
KORH 190520Z 1906/2006 28009KT P6SM SCT025 BKN050
     FM191400 32012G21KT P6SM BKN040
     FM192300 31011KT P6SM SCT045
     FM200100 31010KT P6SM SCT250=



000
FTUS41 KBOX 190520
TAFBAF
TAF
KBAF 190520Z 1906/2006 31006KT P6SM SCT025 BKN045
     FM191400 31010G19KT P6SM OVC035
     FM191800 32012G21KT P6SM SCT045
     FM192300 31010G18KT P6SM FEW250
     FM200300 31005KT P6SM FEW150=



000
FTUS41 KBOX 190520
TAFMHT
TAF
KMHT 190520Z 1906/2006 29006KT P6SM BKN035 BKN045
     FM191200 31011G19KT P6SM SCT020 OVC035
     FM191500 32012G19KT P6SM OVC045
     FM192300 31011KT P6SM SCT045
     FM200300 30007KT P6SM FEW040=



000
FTUS41 KBOX 190520
TAFPVD
TAF
KPVD 190520Z 1906/2006 28007KT P6SM SCT040 BKN070
     FM191500 32010G18KT P6SM BKN045
     FM192200 32011KT P6SM SCT045
     FM200100 31009KT P6SM SCT250=



000
FTUS41 KBOX 190520
TAFBDL
TAF
KBDL 190520Z 1906/2012 30005KT P6SM FEW030 BKN050
     FM191000 31009KT P6SM SCT025 OVC035
     FM191400 32013G21KT P6SM BKN040
     FM192300 31010G18KT P6SM FEW250
     FM200300 30005KT P6SM FEW150
     FM201100 00000KT P6SM SCT130=



000
FTUS41 KBOX 190301 AAA
TAFPVD
TAF AMD
KPVD 190301Z 1903/1924 29008KT P6SM BKN060
     FM191400 30010G21KT P6SM OVC060
     FM192100 31011G22KT P6SM SCT045=



000
FTUS41 KBOX 190301 AAA
TAFPVD
TAF AMD
KPVD 190301Z 1903/1924 29008KT P6SM BKN060
     FM191400 30010G21KT P6SM OVC060
     FM192100 31011G22KT P6SM SCT045=



000
FTUS41 KBOX 190300 AAA
TAFMHT
TAF AMD
KMHT 190300Z 1903/1924 27004KT P6SM BKN110
     FM191300 30009KT P6SM OVC045
     FM192300 31009KT P6SM SCT250=



000
FTUS41 KBOX 190300 AAA
TAFMHT
TAF AMD
KMHT 190300Z 1903/1924 27004KT P6SM BKN110
     FM191300 30009KT P6SM OVC045
     FM192300 31009KT P6SM SCT250=



000
FTUS41 KBOX 190259 AAA
TAFBDL
TAF AMD
KBDL 190259Z 1903/2006 29007KT P6SM SCT040 OVC070
     FM191200 31010G22KT P6SM OVC070
     FM191800 32014G25KT P6SM SCT045
     FM200000 31009KT P6SM FEW250
     FM200500 29005KT P6SM FEW150=



000
FTUS41 KBOX 190259 AAA
TAFBDL
TAF AMD
KBDL 190259Z 1903/2006 29007KT P6SM SCT040 OVC070
     FM191200 31010G22KT P6SM OVC070
     FM191800 32014G25KT P6SM SCT045
     FM200000 31009KT P6SM FEW250
     FM200500 29005KT P6SM FEW150=



000
FTUS41 KBOX 190258 AAA
TAFBOS
TAF AMD
KBOS 190258Z 1903/2006 27011KT P6SM BKN070
     FM191300 29011G19KT P6SM BKN045
     FM192200 31011G22KT P6SM SCT045
     FM200200 30009KT P6SM FEW250=



000
FTUS41 KBOX 190258 AAA
TAFBOS
TAF AMD
KBOS 190258Z 1903/2006 27011KT P6SM BKN070
     FM191300 29011G19KT P6SM BKN045
     FM192200 31011G22KT P6SM SCT045
     FM200200 30009KT P6SM FEW250=



000
FTUS41 KBOX 182320
TAFBOS
TAF
KBOS 182320Z 1900/2006 28009KT P6SM SCT050 OVC090
     FM191300 29011G19KT P6SM BKN045
     FM192200 31011G22KT P6SM SCT045
     FM200200 30009KT P6SM FEW250=



000
FTUS41 KBOX 182320
TAFBOS
TAF
KBOS 182320Z 1900/2006 28009KT P6SM SCT050 OVC090
     FM191300 29011G19KT P6SM BKN045
     FM192200 31011G22KT P6SM SCT045
     FM200200 30009KT P6SM FEW250=



000
FTUS41 KBOX 182320
TAFBDL
TAF
KBDL 182320Z 1900/2006 33004KT P6SM SCT040 OVC070
     FM191200 31010G22KT P6SM OVC070
     FM191800 32014G25KT P6SM SCT045
     FM200000 31009KT P6SM FEW250
     FM200500 29005KT P6SM FEW150=



000
FTUS41 KBOX 182320
TAFORH
TAF
KORH 182320Z 1900/1924 28011KT P6SM SCT070 OVC100
     FM191400 30011G22KT P6SM OVC050
     FM192100 31010G22KT P6SM SCT045=



000
FTUS41 KBOX 182320
TAFACK
TAF
KACK 182320Z 1900/1924 24009KT P6SM SCT060
     FM191100 29012KT P6SM BKN060
     FM191700 30015G25KT P6SM OVC030
     FM192000 31016G26KT P6SM BKN040=



000
FTUS41 KBOX 182320
TAFPVD
TAF
KPVD 182320Z 1900/1924 29008KT P6SM SCT035 BKN060
     FM191400 30010G21KT P6SM OVC060
     FM192100 31011G22KT P6SM SCT045=



000
FTUS41 KBOX 182320
TAFMHT
TAF
KMHT 182320Z 1900/1924 27004KT P6SM BKN110
     FM191300 30009KT P6SM OVC045
     FM192300 31009KT P6SM SCT250=



000
FTUS41 KBOX 182320
TAFBAF
TAF
KBAF 182320Z 1900/1924 00000KT P6SM OVC070
     FM191200 31010G22KT P6SM OVC070
     FM191800 31013G26KT P6SM SCT045
     FM191900 31012G24KT P6SM SCT250=



000
FTUS41 KBOX 182320
TAFORH
TAF
KORH 182320Z 1900/1924 28011KT P6SM SCT070 OVC100
     FM191400 30011G22KT P6SM OVC050
     FM192100 31010G22KT P6SM SCT045=



000
FTUS41 KBOX 182320
TAFPVD
TAF
KPVD 182320Z 1900/1924 29008KT P6SM SCT035 BKN060
     FM191400 30010G21KT P6SM OVC060
     FM192100 31011G22KT P6SM SCT045=



000
FTUS41 KBOX 182320
TAFBDL
TAF
KBDL 182320Z 1900/2006 33004KT P6SM SCT040 OVC070
     FM191200 31010G22KT P6SM OVC070
     FM191800 32014G25KT P6SM SCT045
     FM200000 31009KT P6SM FEW250
     FM200500 29005KT P6SM FEW150=



000
FTUS41 KBOX 182320
TAFACK
TAF
KACK 182320Z 1900/1924 24009KT P6SM SCT060
     FM191100 29012KT P6SM BKN060
     FM191700 30015G25KT P6SM OVC030
     FM192000 31016G26KT P6SM BKN040=



000
FTUS41 KBOX 182320
TAFBAF
TAF
KBAF 182320Z 1900/1924 00000KT P6SM OVC070
     FM191200 31010G22KT P6SM OVC070
     FM191800 31013G26KT P6SM SCT045
     FM191900 31012G24KT P6SM SCT250=



000
FTUS41 KBOX 182320
TAFMHT
TAF
KMHT 182320Z 1900/1924 27004KT P6SM BKN110
     FM191300 30009KT P6SM OVC045
     FM192300 31009KT P6SM SCT250=



000
FTUS41 KBOX 182137 AAA
TAFPVD
TAF AMD
KPVD 182137Z 1822/1918 21005KT P6SM SCT060 BKN100
     FM182215 23010KT P6SM VCSH SCT020 BKN060
     FM182300 27008KT P6SM BKN060
     FM191500 31011G22KT P6SM OVC050=



000
FTUS41 KBOX 182112 AAB
TAFBOS
TAF AMD
KBOS 182112Z 1821/1924 25010KT P6SM FEW020 BKN060
     FM182200 25008KT P6SM VCSH BKN060
     FM182300 29012KT P6SM BKN060
     FM191400 30011G23KT P6SM OVC045
     FM192200 31011G22KT P6SM SCT045=



000
FTUS41 KBOX 182112 AAB
TAFBOS
TAF AMD
KBOS 182112Z 1821/1924 25010KT P6SM FEW020 BKN060
     FM182200 25008KT P6SM VCSH BKN060
     FM182300 29012KT P6SM BKN060
     FM191400 30011G23KT P6SM OVC045
     FM192200 31011G22KT P6SM SCT045=



000
FTUS41 KBOX 182103 AAA
TAFORH
TAF AMD
KORH 182103Z 1821/1918 26015KT 2SM +RA BR SCT020 BKN030 OVC090
     FM182130 28015KT P6SM SCT030 BKN090
     FM191400 30011G22KT P6SM OVC050=



000
FTUS41 KBOX 182103 AAA
TAFORH
TAF AMD
KORH 182103Z 1821/1918 26015KT 2SM +RA BR SCT020 BKN030 OVC090
     FM182130 28015KT P6SM SCT030 BKN090
     FM191400 30011G22KT P6SM OVC050=



000
FTUS41 KBOX 181831 AAA
TAFBOS
TAF AMD
KBOS 181831Z 1819/1924 20012G20KT P6SM BKN080
      TEMPO 1819/1820 4SM -SHRA OVC035
     FM182300 26008KT P6SM BKN070
     FM191400 30011G23KT P6SM OVC045
     FM192200 31011G22KT P6SM SCT045=



000
FTUS41 KBOX 181831 AAA
TAFBOS
TAF AMD
KBOS 181831Z 1819/1924 20012G20KT P6SM BKN080
      TEMPO 1819/1820 4SM -SHRA OVC035
     FM182300 26008KT P6SM BKN070
     FM191400 30011G23KT P6SM OVC045
     FM192200 31011G22KT P6SM SCT045=



000
FTUS41 KBOX 181734
TAFBAF
TAF
KBAF 181734Z 1818/1918 20007KT P6SM BKN070
     FM190000 29006KT P6SM BKN080
     FM191200 31010G22KT P6SM OVC070=



000
FTUS41 KBOX 181734
TAFACK
TAF
KACK 181734Z 1818/1918 21011KT P6SM SCT040
     FM190000 25013G22KT P6SM SCT070
     FM190500 27011G20KT P6SM BKN060
     FM191700 30015G25KT P6SM OVC030=



000
FTUS41 KBOX 181734
TAFPVD
TAF
KPVD 181734Z 1818/1918 20012KT P6SM BKN060
     FM182300 27008KT P6SM BKN060
     FM191500 31011G22KT P6SM OVC050=



000
FTUS41 KBOX 181734
TAFBDL
TAF
KBDL 181734Z 1818/1924 25008KT P6SM BKN080
     FM190000 29006KT P6SM BKN070
     FM191200 31010G22KT P6SM OVC070
     FM191800 32014G23KT P6SM SCT045=



000
FTUS41 KBOX 181734
TAFBOS
TAF
KBOS 181734Z 1818/1924 20010KT P6SM BKN080
     FM182300 26008KT P6SM BKN070
     FM191400 30011G23KT P6SM OVC045
     FM192200 31011G22KT P6SM SCT045=



000
FTUS41 KBOX 181734
TAFMHT
TAF
KMHT 181734Z 1818/1918 23007KT P6SM BKN040
     FM190300 28006KT P6SM BKN060
     FM191500 31010G23KT P6SM OVC045=



000
FTUS41 KBOX 181734
TAFACK
TAF
KACK 181734Z 1818/1918 21011KT P6SM SCT040
     FM190000 25013G22KT P6SM SCT070
     FM190500 27011G20KT P6SM BKN060
     FM191700 30015G25KT P6SM OVC030=



000
FTUS41 KBOX 181734
TAFBDL
TAF
KBDL 181734Z 1818/1924 25008KT P6SM BKN080
     FM190000 29006KT P6SM BKN070
     FM191200 31010G22KT P6SM OVC070
     FM191800 32014G23KT P6SM SCT045=



000
FTUS41 KBOX 181734
TAFBOS
TAF
KBOS 181734Z 1818/1924 20010KT P6SM BKN080
     FM182300 26008KT P6SM BKN070
     FM191400 30011G23KT P6SM OVC045
     FM192200 31011G22KT P6SM SCT045=



000
FTUS41 KBOX 181734
TAFPVD
TAF
KPVD 181734Z 1818/1918 20012KT P6SM BKN060
     FM182300 27008KT P6SM BKN060
     FM191500 31011G22KT P6SM OVC050=



000
FTUS41 KBOX 181734
TAFORH
TAF
KORH 181734Z 1818/1918 22010KT P6SM BKN045
     FM190000 28007KT P6SM BKN070
     FM191400 30011G22KT P6SM OVC050=



000
FTUS41 KBOX 181734
TAFMHT
TAF
KMHT 181734Z 1818/1918 23007KT P6SM BKN040
     FM190300 28006KT P6SM BKN060
     FM191500 31010G23KT P6SM OVC045=



000
FTUS41 KBOX 181734
TAFBAF
TAF
KBAF 181734Z 1818/1918 20007KT P6SM BKN070
     FM190000 29006KT P6SM BKN080
     FM191200 31010G22KT P6SM OVC070=



000
FTUS41 KBOX 181734
TAFORH
TAF
KORH 181734Z 1818/1918 22010KT P6SM BKN045
     FM190000 28007KT P6SM BKN070
     FM191400 30011G22KT P6SM OVC050=



000
FTUS41 KBOX 181523 AAA
TAFPVD
TAF AMD
KPVD 181523Z 1815/1912 21010KT P6SM BKN090
     FM181700 23011KT P6SM BKN250
     FM182300 27009KT P6SM SCT070
     FM190300 28009KT P6SM BKN090=



000
FTUS41 KBOX 181523 AAA
TAFPVD
TAF AMD
KPVD 181523Z 1815/1912 21010KT P6SM BKN090
     FM181700 23011KT P6SM BKN250
     FM182300 27009KT P6SM SCT070
     FM190300 28009KT P6SM BKN090=



000
FTUS41 KBOX 181523 AAA
TAFMHT
TAF AMD
KMHT 181523Z 1815/1912 17008KT P6SM BKN020
     FM181700 23008KT P6SM BKN035
     FM182300 27007KT P6SM BKN050
     FM190200 28007KT P6SM SCT050
     FM190800 29008KT P6SM BKN050=



000
FTUS41 KBOX 181523 AAA
TAFMHT
TAF AMD
KMHT 181523Z 1815/1912 17008KT P6SM BKN020
     FM181700 23008KT P6SM BKN035
     FM182300 27007KT P6SM BKN050
     FM190200 28007KT P6SM SCT050
     FM190800 29008KT P6SM BKN050=



000
FTUS41 KBOX 181522 AAA
TAFBDL
TAF AMD
KBDL 181522Z 1815/1918 21007KT P6SM BKN090
     FM181700 25009KT P6SM BKN035
     FM190700 29008KT P6SM BKN050
     FM190900 30009KT P6SM BKN025
     FM191400 31015G28KT P6SM BKN050=



000
FTUS41 KBOX 181522 AAA
TAFBDL
TAF AMD
KBDL 181522Z 1815/1918 21007KT P6SM BKN090
     FM181700 25009KT P6SM BKN035
     FM190700 29008KT P6SM BKN050
     FM190900 30009KT P6SM BKN025
     FM191400 31015G28KT P6SM BKN050=



000
FTUS41 KBOX 181522 AAA
TAFBOS
TAF AMD
KBOS 181522Z 1815/1918 20010KT P6SM BKN130
     FM181800 22012G20KT P6SM BKN045
     FM182200 26010KT P6SM BKN050
     FM190000 27009KT P6SM SCT090
     FM190200 27009KT P6SM BKN090
     FM191500 29013G21KT P6SM OVC050=



000
FTUS41 KBOX 181522 AAA
TAFBOS
TAF AMD
KBOS 181522Z 1815/1918 20010KT P6SM BKN130
     FM181800 22012G20KT P6SM BKN045
     FM182200 26010KT P6SM BKN050
     FM190000 27009KT P6SM SCT090
     FM190200 27009KT P6SM BKN090
     FM191500 29013G21KT P6SM OVC050=



000
FTUS41 KBOX 181125
TAFBOS
TAF
KBOS 181125Z 1812/1918 20008KT P6SM BKN130
     FM181800 22012G20KT P6SM BKN045
     FM182200 26010KT P6SM BKN050
     FM190000 27009KT P6SM SCT090
     FM190200 27009KT P6SM BKN090
     FM191500 29013G21KT P6SM OVC050=



000
FTUS41 KBOX 181125
TAFBAF
TAF
KBAF 181125Z 1812/1912 17006KT 3SM BR BKN100
     FM181300 19005KT P6SM BKN080
     FM181500 24005KT P6SM BKN050
     FM181700 26008KT P6SM -SHRA BKN035
     FM181900 27009KT P6SM BKN040
     FM190900 30010G21KT P6SM BKN025=



000
FTUS41 KBOX 181125
TAFPVD
TAF
KPVD 181125Z 1812/1912 20006KT 5SM BR SCT015 BKN080
     FM181300 21007KT P6SM BKN090
     FM181700 23011KT P6SM BKN250
     FM182300 27009KT P6SM SCT070
     FM190300 28009KT P6SM BKN090=



000
FTUS41 KBOX 181125
TAFACK
TAF
KACK 181125Z 1812/1912 19007KT P6SM FEW250
     FM181500 20010G19KT P6SM SCT250
     FM181800 21015KT P6SM SCT040
     FM182100 23016KT P6SM SCT250
     FM190300 26016KT P6SM SCT050
     FM190500 27015KT P6SM BKN050=



000
FTUS41 KBOX 181125
TAFMHT
TAF
KMHT 181125Z 1812/1912 17007KT P6SM BKN005
     FM181300 17008KT P6SM BKN100
     FM181700 23008KT P6SM BKN035
     FM182300 27007KT P6SM BKN050
     FM190200 28007KT P6SM SCT050
     FM190800 29008KT P6SM BKN050=



000
FTUS41 KBOX 181125
TAFBAF
TAF
KBAF 181125Z 1812/1912 17006KT 3SM BR BKN100
     FM181300 19005KT P6SM BKN080
     FM181500 24005KT P6SM BKN050
     FM181700 26008KT P6SM -SHRA BKN035
     FM181900 27009KT P6SM BKN040
     FM190900 30010G21KT P6SM BKN025=



000
FTUS41 KBOX 181125
TAFBOS
TAF
KBOS 181125Z 1812/1918 20008KT P6SM BKN130
     FM181800 22012G20KT P6SM BKN045
     FM182200 26010KT P6SM BKN050
     FM190000 27009KT P6SM SCT090
     FM190200 27009KT P6SM BKN090
     FM191500 29013G21KT P6SM OVC050=



000
FTUS41 KBOX 181125
TAFORH
TAF
KORH 181125Z 1812/1912 23006KT 3SM BR OVC002
     FM181300 22006KT 6SM BR BKN008
     FM181400 23007KT P6SM BKN060
     FM181800 25012G18KT P6SM BKN045
     FM182300 27010KT P6SM SCT050
     FM190700 28010G18KT P6SM BKN050
     FM190900 29011G20KT P6SM BKN025=



000
FTUS41 KBOX 181125
TAFPVD
TAF
KPVD 181125Z 1812/1912 20006KT 5SM BR SCT015 BKN080
     FM181300 21007KT P6SM BKN090
     FM181700 23011KT P6SM BKN250
     FM182300 27009KT P6SM SCT070
     FM190300 28009KT P6SM BKN090=



000
FTUS41 KBOX 181125
TAFMHT
TAF
KMHT 181125Z 1812/1912 17007KT P6SM BKN005
     FM181300 17008KT P6SM BKN100
     FM181700 23008KT P6SM BKN035
     FM182300 27007KT P6SM BKN050
     FM190200 28007KT P6SM SCT050
     FM190800 29008KT P6SM BKN050=



000
FTUS41 KBOX 181125
TAFPVD
TAF
KPVD 181125Z 1812/1912 20006KT 5SM BR SCT015 BKN080
     FM181300 21007KT P6SM BKN090
     FM181700 23011KT P6SM BKN250
     FM182300 27009KT P6SM SCT070
     FM190300 28009KT P6SM BKN090=



000
FTUS41 KBOX 181125
TAFBDL
TAF
KBDL 181125Z 1812/1918 19005KT P6SM BKN090
     FM181700 25009KT P6SM BKN035
     FM190700 29008KT P6SM BKN050
     FM190900 30009KT P6SM BKN025
     FM191400 31015G28KT P6SM BKN050=



000
FTUS41 KBOX 181125
TAFACK
TAF
KACK 181125Z 1812/1912 19007KT P6SM FEW250
     FM181500 20010G19KT P6SM SCT250
     FM181800 21015KT P6SM SCT040
     FM182100 23016KT P6SM SCT250
     FM190300 26016KT P6SM SCT050
     FM190500 27015KT P6SM BKN050=



000
FTUS41 KBOX 181125
TAFBAF
TAF
KBAF 181125Z 1812/1912 17006KT 3SM BR BKN100
     FM181300 19005KT P6SM BKN080
     FM181500 24005KT P6SM BKN050
     FM181700 26008KT P6SM -SHRA BKN035
     FM181900 27009KT P6SM BKN040
     FM190900 30010G21KT P6SM BKN025=



000
FTUS41 KBOX 181125
TAFMHT
TAF
KMHT 181125Z 1812/1912 17007KT P6SM BKN005
     FM181300 17008KT P6SM BKN100
     FM181700 23008KT P6SM BKN035
     FM182300 27007KT P6SM BKN050
     FM190200 28007KT P6SM SCT050
     FM190800 29008KT P6SM BKN050=



000
FTUS41 KBOX 181125
TAFACK
TAF
KACK 181125Z 1812/1912 19007KT P6SM FEW250
     FM181500 20010G19KT P6SM SCT250
     FM181800 21015KT P6SM SCT040
     FM182100 23016KT P6SM SCT250
     FM190300 26016KT P6SM SCT050
     FM190500 27015KT P6SM BKN050=



000
FTUS41 KBOX 181125
TAFORH
TAF
KORH 181125Z 1812/1912 23006KT 3SM BR OVC002
     FM181300 22006KT 6SM BR BKN008
     FM181400 23007KT P6SM BKN060
     FM181800 25012G18KT P6SM BKN045
     FM182300 27010KT P6SM SCT050
     FM190700 28010G18KT P6SM BKN050
     FM190900 29011G20KT P6SM BKN025=



000
FTUS41 KBOX 181125
TAFORH
TAF
KORH 181125Z 1812/1912 23006KT 3SM BR OVC002
     FM181300 22006KT 6SM BR BKN008
     FM181400 23007KT P6SM BKN060
     FM181800 25012G18KT P6SM BKN045
     FM182300 27010KT P6SM SCT050
     FM190700 28010G18KT P6SM BKN050
     FM190900 29011G20KT P6SM BKN025=



000
FTUS41 KBOX 181125
TAFBAF
TAF
KBAF 181125Z 1812/1912 17006KT 3SM BR BKN100
     FM181300 19005KT P6SM BKN080
     FM181500 24005KT P6SM BKN050
     FM181700 26008KT P6SM -SHRA BKN035
     FM181900 27009KT P6SM BKN040
     FM190900 30010G21KT P6SM BKN025=



000
FTUS41 KBOX 181125
TAFBOS
TAF
KBOS 181125Z 1812/1918 20008KT P6SM BKN130
     FM181800 22012G20KT P6SM BKN045
     FM182200 26010KT P6SM BKN050
     FM190000 27009KT P6SM SCT090
     FM190200 27009KT P6SM BKN090
     FM191500 29013G21KT P6SM OVC050=



000
FTUS41 KBOX 181125
TAFPVD
TAF
KPVD 181125Z 1812/1912 20006KT 5SM BR SCT015 BKN080
     FM181300 21007KT P6SM BKN090
     FM181700 23011KT P6SM BKN250
     FM182300 27009KT P6SM SCT070
     FM190300 28009KT P6SM BKN090=



000
FTUS41 KBOX 181125
TAFMHT
TAF
KMHT 181125Z 1812/1912 17007KT P6SM BKN005
     FM181300 17008KT P6SM BKN100
     FM181700 23008KT P6SM BKN035
     FM182300 27007KT P6SM BKN050
     FM190200 28007KT P6SM SCT050
     FM190800 29008KT P6SM BKN050=



000
FTUS41 KBOX 181125
TAFBDL
TAF
KBDL 181125Z 1812/1918 19005KT P6SM BKN090
     FM181700 25009KT P6SM BKN035
     FM190700 29008KT P6SM BKN050
     FM190900 30009KT P6SM BKN025
     FM191400 31015G28KT P6SM BKN050=



000
FTUS41 KBOX 181125
TAFORH
TAF
KORH 181125Z 1812/1912 23006KT 3SM BR OVC002
     FM181300 22006KT 6SM BR BKN008
     FM181400 23007KT P6SM BKN060
     FM181800 25012G18KT P6SM BKN045
     FM182300 27010KT P6SM SCT050
     FM190700 28010G18KT P6SM BKN050
     FM190900 29011G20KT P6SM BKN025=



000
FTUS41 KBOX 181125
TAFACK
TAF
KACK 181125Z 1812/1912 19007KT P6SM FEW250
     FM181500 20010G19KT P6SM SCT250
     FM181800 21015KT P6SM SCT040
     FM182100 23016KT P6SM SCT250
     FM190300 26016KT P6SM SCT050
     FM190500 27015KT P6SM BKN050=



000
FTUS41 KBOX 181125
TAFBDL
TAF
KBDL 181125Z 1812/1918 19005KT P6SM BKN090
     FM181700 25009KT P6SM BKN035
     FM190700 29008KT P6SM BKN050
     FM190900 30009KT P6SM BKN025
     FM191400 31015G28KT P6SM BKN050=



000
FTUS41 KBOX 181125
TAFBOS
TAF
KBOS 181125Z 1812/1918 20008KT P6SM BKN130
     FM181800 22012G20KT P6SM BKN045
     FM182200 26010KT P6SM BKN050
     FM190000 27009KT P6SM SCT090
     FM190200 27009KT P6SM BKN090
     FM191500 29013G21KT P6SM OVC050=



000
FTUS41 KBOX 181125
TAFBDL
TAF
KBDL 181125Z 1812/1918 19005KT P6SM BKN090
     FM181700 25009KT P6SM BKN035
     FM190700 29008KT P6SM BKN050
     FM190900 30009KT P6SM BKN025
     FM191400 31015G28KT P6SM BKN050=



000
FTUS41 KBOX 180932 AAA
TAFORH
TAF AMD
KORH 180932Z 1810/1906 22008KT 1/2SM FG BKN002
     FM181100 22008KT 2SM BR SCT002
     FM181200 22010KT P6SM BKN060
     FM181800 25015G18KT P6SM BKN045
     FM182300 27010KT P6SM SCT050=



000
FTUS41 KBOX 180932 AAA
TAFORH
TAF AMD
KORH 180932Z 1810/1906 22008KT 1/2SM FG BKN002
     FM181100 22008KT 2SM BR SCT002
     FM181200 22010KT P6SM BKN060
     FM181800 25015G18KT P6SM BKN045
     FM182300 27010KT P6SM SCT050=



000
FTUS41 KBOX 180817 AAA
TAFBAF
TAF AMD
KBAF 180817Z 1808/1906 16004KT 5SM BR SCT010 BKN060
     FM181200 20008KT P6SM BKN050
     FM181700 26015KT P6SM -SHRA BKN035
     FM181900 27009KT P6SM BKN040=



000
FTUS41 KBOX 180817 AAA
TAFBAF
TAF AMD
KBAF 180817Z 1808/1906 16004KT 5SM BR SCT010 BKN060
     FM181200 20008KT P6SM BKN050
     FM181700 26015KT P6SM -SHRA BKN035
     FM181900 27009KT P6SM BKN040=



000
FTUS41 KBOX 180816 AAA
TAFPVD
TAF AMD
KPVD 180816Z 1808/1906 20005KT P6SM FEW007 BKN100
     FM181200 20008KT P6SM BKN100
     FM181700 23012G18KT P6SM BKN250
     FM182300 27009KT P6SM SCT070
     FM190300 28009KT P6SM BKN090=



000
FTUS41 KBOX 180816 AAA
TAFPVD
TAF AMD
KPVD 180816Z 1808/1906 20005KT P6SM FEW007 BKN100
     FM181200 20008KT P6SM BKN100
     FM181700 23012G18KT P6SM BKN250
     FM182300 27009KT P6SM SCT070
     FM190300 28009KT P6SM BKN090=



000
FTUS41 KBOX 180815 AAA
TAFMHT
TAF AMD
KMHT 180815Z 1808/1906 VRB03KT P6SM SCT080
     FM180900 00000KT P6SM SCT010 BKN070
     FM181200 19010KT P6SM BKN050
     FM181700 23012G19KT P6SM BKN050
     FM182300 27007KT P6SM BKN050=



000
FTUS41 KBOX 180815 AAA
TAFMHT
TAF AMD
KMHT 180815Z 1808/1906 VRB03KT P6SM SCT080
     FM180900 00000KT P6SM SCT010 BKN070
     FM181200 19010KT P6SM BKN050
     FM181700 23012G19KT P6SM BKN050
     FM182300 27007KT P6SM BKN050=



000
FTUS41 KBOX 180814 AAA
TAFBDL
TAF AMD
KBDL 180814Z 1808/1912 19005KT P6SM BKN050
     FM181700 25015KT P6SM BKN035
     FM190700 29008KT P6SM BKN050
     FM190900 30009KT P6SM BKN025=



000
FTUS41 KBOX 180812 AAA
TAFBOS
TAF AMD
KBOS 180812Z 1808/1912 20007KT P6SM SCT150
     FM181200 20010KT P6SM BKN100
     FM181800 24010G20KT P6SM BKN050
     FM190000 27009KT P6SM SCT090=



000
FTUS41 KBOX 180812 AAA
TAFBOS
TAF AMD
KBOS 180812Z 1808/1912 20007KT P6SM SCT150
     FM181200 20010KT P6SM BKN100
     FM181800 24010G20KT P6SM BKN050
     FM190000 27009KT P6SM SCT090=



000
FTUS41 KBOX 180528
TAFPVD
TAF
KPVD 180528Z 1806/1906 20005KT P6SM FEW200
     FM181200 20008KT P6SM BKN100
     FM181700 23015KT P6SM BKN250
     FM182300 27009KT P6SM SCT070
     FM190300 28009KT P6SM BKN090=



000
FTUS41 KBOX 180528
TAFBOS
TAF
KBOS 180528Z 1806/1912 21010KT P6SM FEW150
     FM180900 19008KT P6SM SCT010 BKN100
     FM181300 22013KT P6SM BKN045
     FM181800 26010G20KT P6SM BKN050
     FM190000 27009KT P6SM SCT090=



000
FTUS41 KBOX 180528
TAFBAF
TAF
KBAF 180528Z 1806/1906 18004KT P6SM SCT070
     FM180800 16004KT 5SM BR SCT010 BKN060
     FM181000 VRB03KT 2SM BR SCT010 BKN060
     FM181200 20008KT P6SM BKN050
     FM181700 26015KT P6SM -SHRA BKN035
     FM181900 27009KT P6SM BKN040=



000
FTUS41 KBOX 180528
TAFBDL
TAF
KBDL 180528Z 1806/1912 17005KT P6SM SCT070
     FM180900 18004KT 5SM BR SCT010 BKN060
     FM181300 20010KT P6SM BKN050
     FM181700 25015KT P6SM BKN035
     FM190700 29008KT P6SM BKN050
     FM190900 30009KT P6SM BKN025=



000
FTUS41 KBOX 180528
TAFACK
TAF
KACK 180528Z 1806/1906 21008KT P6SM FEW200
     FM181500 20010G19KT P6SM SCT250
     FM181800 21015KT P6SM SCT040
     FM182100 23016KT P6SM SCT250
     FM190300 26016KT P6SM SCT050
     FM190500 27015KT P6SM BKN050=



000
FTUS41 KBOX 180528
TAFORH
TAF
KORH 180528Z 1806/1906 22008KT 5SM BR SCT008 OVC050
     FM181200 22010KT P6SM BKN060
     FM181800 25015G18KT P6SM BKN045
     FM182300 27010KT P6SM SCT050=



000
FTUS41 KBOX 180528
TAFMHT
TAF
KMHT 180528Z 1806/1906 VRB03KT P6SM SCT080
     FM180900 00000KT 5SM BR SCT010 BKN070
     FM181200 19010KT P6SM BKN050
     FM181700 23012G19KT P6SM BKN050
     FM182300 27007KT P6SM BKN050=



000
FTUS41 KBOX 180528
TAFBAF
TAF
KBAF 180528Z 1806/1906 18004KT P6SM SCT070
     FM180800 16004KT 5SM BR SCT010 BKN060
     FM181000 VRB03KT 2SM BR SCT010 BKN060
     FM181200 20008KT P6SM BKN050
     FM181700 26015KT P6SM -SHRA BKN035
     FM181900 27009KT P6SM BKN040=



000
FTUS41 KBOX 180528
TAFMHT
TAF
KMHT 180528Z 1806/1906 VRB03KT P6SM SCT080
     FM180900 00000KT 5SM BR SCT010 BKN070
     FM181200 19010KT P6SM BKN050
     FM181700 23012G19KT P6SM BKN050
     FM182300 27007KT P6SM BKN050=



000
FTUS41 KBOX 180528
TAFORH
TAF
KORH 180528Z 1806/1906 22008KT 5SM BR SCT008 OVC050
     FM181200 22010KT P6SM BKN060
     FM181800 25015G18KT P6SM BKN045
     FM182300 27010KT P6SM SCT050=



000
FTUS41 KBOX 180528
TAFACK
TAF
KACK 180528Z 1806/1906 21008KT P6SM FEW200
     FM181500 20010G19KT P6SM SCT250
     FM181800 21015KT P6SM SCT040
     FM182100 23016KT P6SM SCT250
     FM190300 26016KT P6SM SCT050
     FM190500 27015KT P6SM BKN050=



000
FTUS41 KBOX 180528
TAFBOS
TAF
KBOS 180528Z 1806/1912 21010KT P6SM FEW150
     FM180900 19008KT P6SM SCT010 BKN100
     FM181300 22013KT P6SM BKN045
     FM181800 26010G20KT P6SM BKN050
     FM190000 27009KT P6SM SCT090=



000
FTUS41 KBOX 180528
TAFPVD
TAF
KPVD 180528Z 1806/1906 20005KT P6SM FEW200
     FM181200 20008KT P6SM BKN100
     FM181700 23015KT P6SM BKN250
     FM182300 27009KT P6SM SCT070
     FM190300 28009KT P6SM BKN090=



000
FTUS41 KBOX 180528
TAFBDL
TAF
KBDL 180528Z 1806/1912 17005KT P6SM SCT070
     FM180900 18004KT 5SM BR SCT010 BKN060
     FM181300 20010KT P6SM BKN050
     FM181700 25015KT P6SM BKN035
     FM190700 29008KT P6SM BKN050
     FM190900 30009KT P6SM BKN025=



000
FTUS41 KBOX 180335 AAA
TAFPVD
TAF AMD
KPVD 180335Z 1804/1824 21006KT P6SM FEW200
     FM180900 20006KT P6SM SCT015
     FM181100 20006KT P6SM BKN015
     FM181400 22007KT P6SM BKN060
     FM181700 23010G20KT P6SM SCT090=



000
FTUS41 KBOX 180335 AAA
TAFPVD
TAF AMD
KPVD 180335Z 1804/1824 21006KT P6SM FEW200
     FM180900 20006KT P6SM SCT015
     FM181100 20006KT P6SM BKN015
     FM181400 22007KT P6SM BKN060
     FM181700 23010G20KT P6SM SCT090=



000
FTUS41 KBOX 180333 AAA
TAFMHT
TAF AMD
KMHT 180333Z 1804/1824 19004KT P6SM FEW200
     FM180900 VRB03KT 5SM BR BKN010
     FM181400 20004KT P6SM BKN045
     FM182000 26007KT P6SM BKN050=



000
FTUS41 KBOX 180332 AAA
TAFBDL
TAF AMD
KBDL 180332Z 1804/1906 18005KT P6SM SCT200
     FM180900 17004KT 3SM BR BKN015 OVC040
     FM181400 23005KT P6SM BKN050
     FM181700 25009KT P6SM BKN050
     FM190200 29006KT P6SM BKN060=



000
FTUS41 KBOX 180332 AAA
TAFBDL
TAF AMD
KBDL 180332Z 1804/1906 18005KT P6SM SCT200
     FM180900 17004KT 3SM BR BKN015 OVC040
     FM181400 23005KT P6SM BKN050
     FM181700 25009KT P6SM BKN050
     FM190200 29006KT P6SM BKN060=



000
FTUS41 KBOX 180330 AAA
TAFBOS
TAF AMD
KBOS 180330Z 1804/1906 22008KT P6SM FEW200
     FM180900 20006KT P6SM SCT010
     FM181100 20007KT P6SM BKN010
     FM181400 21008KT P6SM BKN050
     FM182100 26010G18KT P6SM BKN050=



000
FTUS41 KBOX 180330 AAA
TAFBOS
TAF AMD
KBOS 180330Z 1804/1906 22008KT P6SM FEW200
     FM180900 20006KT P6SM SCT010
     FM181100 20007KT P6SM BKN010
     FM181400 21008KT P6SM BKN050
     FM182100 26010G18KT P6SM BKN050=



000
FTUS41 KBOX 172320
TAFBDL
TAF
KBDL 172320Z 1800/1906 19009KT P6SM SKC
     FM180600 18005KT 2SM BR BKN060
     FM180800 18004KT P6SM BKN060
     FM181100 20004KT P6SM BKN015
     FM181700 25009KT P6SM BKN050
     FM190200 29006KT P6SM BKN060=



000
FTUS41 KBOX 172320
TAFMHT
TAF
KMHT 172320Z 1800/1824 16005KT P6SM SKC
     FM180700 VRB03KT P6SM BKN080
     FM181800 24007KT P6SM BKN050=



000
FTUS41 KBOX 172320
TAFBOS
TAF
KBOS 172320Z 1800/1906 19012KT P6SM SKC
     FM181000 19007KT P6SM BKN010
     FM181600 22010G19KT P6SM BKN050
     FM182100 26010G18KT P6SM BKN050=



000
FTUS41 KBOX 172320
TAFBDL
TAF
KBDL 172320Z 1800/1906 19009KT P6SM SKC
     FM180600 18005KT 2SM BR BKN060
     FM180800 18004KT P6SM BKN060
     FM181100 20004KT P6SM BKN015
     FM181700 25009KT P6SM BKN050
     FM190200 29006KT P6SM BKN060=



000
FTUS41 KBOX 172320
TAFMHT
TAF
KMHT 172320Z 1800/1824 16005KT P6SM SKC
     FM180700 VRB03KT P6SM BKN080
     FM181800 24007KT P6SM BKN050=



000
FTUS41 KBOX 172320
TAFACK
TAF
KACK 172320Z 1800/1824 21008KT P6SM SKC
     FM180900 19006KT P6SM SCT025
     FM181400 20010G18KT P6SM SCT250
     FM181800 22013KT P6SM BKN050
     FM182000 24013G23KT P6SM SCT060=



000
FTUS41 KBOX 172320
TAFBOS
TAF
KBOS 172320Z 1800/1906 19012KT P6SM SKC
     FM181000 19007KT P6SM BKN010
     FM181600 22010G19KT P6SM BKN050
     FM182100 26010G18KT P6SM BKN050=



000
FTUS41 KBOX 172320
TAFACK
TAF
KACK 172320Z 1800/1824 21008KT P6SM SKC
     FM180900 19006KT P6SM SCT025
     FM181400 20010G18KT P6SM SCT250
     FM181800 22013KT P6SM BKN050
     FM182000 24013G23KT P6SM SCT060=



000
FTUS41 KBOX 172320
TAFORH
TAF
KORH 172320Z 1800/1824 21008KT P6SM SKC
     FM180600 21005KT P6SM SCT008
     FM180800 20006KT P6SM BKN008
     FM181300 22007KT P6SM BKN003
     FM181700 25010G18KT P6SM BKN050=



000
FTUS41 KBOX 172320
TAFBAF
TAF
KBAF 172320Z 1800/1824 17006KT P6SM SKC
     FM180100 18005KT P6SM SCT200
     FM180400 19004KT P6SM BKN080
     FM181100 VRB03KT P6SM BKN010
     FM181300 22004KT P6SM BKN010
     FM181700 26009KT P6SM BKN050=



000
FTUS41 KBOX 172320
TAFPVD
TAF
KPVD 172320Z 1800/1824 21007KT P6SM SKC
     FM180800 19004KT 2SM BR SCT200
     FM181000 19005KT 2SM BR BKN015
     FM181200 21006KT P6SM BKN015
     FM181700 23010G20KT P6SM SCT090=



000
FTUS41 KBOX 172320
TAFBOS
TAF
KBOS 172320Z 1800/1906 19012KT P6SM SKC
     FM181000 19007KT P6SM BKN010
     FM181600 22010G19KT P6SM BKN050
     FM182100 26010G18KT P6SM BKN050=



000
FTUS41 KBOX 172320
TAFBDL
TAF
KBDL 172320Z 1800/1906 19009KT P6SM SKC
     FM180600 18005KT 2SM BR BKN060
     FM180800 18004KT P6SM BKN060
     FM181100 20004KT P6SM BKN015
     FM181700 25009KT P6SM BKN050
     FM190200 29006KT P6SM BKN060=



000
FTUS41 KBOX 172320
TAFORH
TAF
KORH 172320Z 1800/1824 21008KT P6SM SKC
     FM180600 21005KT P6SM SCT008
     FM180800 20006KT P6SM BKN008
     FM181300 22007KT P6SM BKN003
     FM181700 25010G18KT P6SM BKN050=



000
FTUS41 KBOX 172320
TAFBAF
TAF
KBAF 172320Z 1800/1824 17006KT P6SM SKC
     FM180100 18005KT P6SM SCT200
     FM180400 19004KT P6SM BKN080
     FM181100 VRB03KT P6SM BKN010
     FM181300 22004KT P6SM BKN010
     FM181700 26009KT P6SM BKN050=



000
FTUS41 KBOX 172320
TAFORH
TAF
KORH 172320Z 1800/1824 21008KT P6SM SKC
     FM180600 21005KT P6SM SCT008
     FM180800 20006KT P6SM BKN008
     FM181300 22007KT P6SM BKN003
     FM181700 25010G18KT P6SM BKN050=



000
FTUS41 KBOX 172320
TAFBAF
TAF
KBAF 172320Z 1800/1824 17006KT P6SM SKC
     FM180100 18005KT P6SM SCT200
     FM180400 19004KT P6SM BKN080
     FM181100 VRB03KT P6SM BKN010
     FM181300 22004KT P6SM BKN010
     FM181700 26009KT P6SM BKN050=



000
FTUS41 KBOX 172320
TAFMHT
TAF
KMHT 172320Z 1800/1824 16005KT P6SM SKC
     FM180700 VRB03KT P6SM BKN080
     FM181800 24007KT P6SM BKN050=



000
FTUS41 KBOX 172320
TAFACK
TAF
KACK 172320Z 1800/1824 21008KT P6SM SKC
     FM180900 19006KT P6SM SCT025
     FM181400 20010G18KT P6SM SCT250
     FM181800 22013KT P6SM BKN050
     FM182000 24013G23KT P6SM SCT060=



000
FTUS41 KBOX 172320
TAFPVD
TAF
KPVD 172320Z 1800/1824 21007KT P6SM SKC
     FM180800 19004KT 2SM BR SCT200
     FM181000 19005KT 2SM BR BKN015
     FM181200 21006KT P6SM BKN015
     FM181700 23010G20KT P6SM SCT090=



000
FTUS41 KBOX 172320
TAFBOS
TAF
KBOS 172320Z 1800/1906 19012KT P6SM SKC
     FM181000 19007KT P6SM BKN010
     FM181600 22010G19KT P6SM BKN050
     FM182100 26010G18KT P6SM BKN050=



000
FTUS41 KBOX 172320
TAFPVD
TAF
KPVD 172320Z 1800/1824 21007KT P6SM SKC
     FM180800 19004KT 2SM BR SCT200
     FM181000 19005KT 2SM BR BKN015
     FM181200 21006KT P6SM BKN015
     FM181700 23010G20KT P6SM SCT090=



000
FTUS41 KBOX 172320
TAFBAF
TAF
KBAF 172320Z 1800/1824 17006KT P6SM SKC
     FM180100 18005KT P6SM SCT200
     FM180400 19004KT P6SM BKN080
     FM181100 VRB03KT P6SM BKN010
     FM181300 22004KT P6SM BKN010
     FM181700 26009KT P6SM BKN050=



000
FTUS41 KBOX 172320
TAFBDL
TAF
KBDL 172320Z 1800/1906 19009KT P6SM SKC
     FM180600 18005KT 2SM BR BKN060
     FM180800 18004KT P6SM BKN060
     FM181100 20004KT P6SM BKN015
     FM181700 25009KT P6SM BKN050
     FM190200 29006KT P6SM BKN060=



000
FTUS41 KBOX 172320
TAFORH
TAF
KORH 172320Z 1800/1824 21008KT P6SM SKC
     FM180600 21005KT P6SM SCT008
     FM180800 20006KT P6SM BKN008
     FM181300 22007KT P6SM BKN003
     FM181700 25010G18KT P6SM BKN050=



000
FTUS41 KBOX 172320
TAFPVD
TAF
KPVD 172320Z 1800/1824 21007KT P6SM SKC
     FM180800 19004KT 2SM BR SCT200
     FM181000 19005KT 2SM BR BKN015
     FM181200 21006KT P6SM BKN015
     FM181700 23010G20KT P6SM SCT090=



000
FTUS41 KBOX 172320
TAFMHT
TAF
KMHT 172320Z 1800/1824 16005KT P6SM SKC
     FM180700 VRB03KT P6SM BKN080
     FM181800 24007KT P6SM BKN050=



000
FTUS41 KBOX 172320
TAFACK
TAF
KACK 172320Z 1800/1824 21008KT P6SM SKC
     FM180900 19006KT P6SM SCT025
     FM181400 20010G18KT P6SM SCT250
     FM181800 22013KT P6SM BKN050
     FM182000 24013G23KT P6SM SCT060=



000
FTUS41 KBOX 172018 AAA
TAFPVD
TAF AMD
KPVD 172018Z 1720/1818 22011G17KT P6SM FEW050
     FM172200 20005KT P6SM FEW050
     FM180300 21004KT P6SM SCT200
     FM180900 20005KT 4SM BR BKN015
     FM181400 23010G20KT P6SM SCT090=



000
FTUS41 KBOX 172018 AAA
TAFPVD
TAF AMD
KPVD 172018Z 1720/1818 22011G17KT P6SM FEW050
     FM172200 20005KT P6SM FEW050
     FM180300 21004KT P6SM SCT200
     FM180900 20005KT 4SM BR BKN015
     FM181400 23010G20KT P6SM SCT090=



000
FTUS41 KBOX 172018 AAA
TAFPVD
TAF AMD
KPVD 172018Z 1720/1818 22011G17KT P6SM FEW050
     FM172200 20005KT P6SM FEW050
     FM180300 21004KT P6SM SCT200
     FM180900 20005KT 4SM BR BKN015
     FM181400 23010G20KT P6SM SCT090=



000
FTUS41 KBOX 172018 AAA
TAFPVD
TAF AMD
KPVD 172018Z 1720/1818 22011G17KT P6SM FEW050
     FM172200 20005KT P6SM FEW050
     FM180300 21004KT P6SM SCT200
     FM180900 20005KT 4SM BR BKN015
     FM181400 23010G20KT P6SM SCT090=



000
FTUS41 KBOX 172017 AAA
TAFMHT
TAF AMD
KMHT 172017Z 1720/1818 23008KT P6SM SCT050
     FM172300 19005KT P6SM FEW050
     FM180700 VRB03KT P6SM BKN080
     FM180900 00000KT 3SM BR BKN015
     FM181400 VRB03KT P6SM BKN045=



000
FTUS41 KBOX 172017 AAA
TAFMHT
TAF AMD
KMHT 172017Z 1720/1818 23008KT P6SM SCT050
     FM172300 19005KT P6SM FEW050
     FM180700 VRB03KT P6SM BKN080
     FM180900 00000KT 3SM BR BKN015
     FM181400 VRB03KT P6SM BKN045=



000
FTUS41 KBOX 172016 AAA
TAFBDL
TAF AMD
KBDL 172016Z 1720/1824 19010G17KT P6SM FEW050
     FM172300 19006KT P6SM FEW050
     FM180600 18005KT P6SM BKN060
     FM180900 VRB03KT 3SM BR BKN015
     FM181500 21005KT P6SM BKN050
     FM181700 25009KT P6SM BKN050=



000
FTUS41 KBOX 172016 AAA
TAFBDL
TAF AMD
KBDL 172016Z 1720/1824 19010G17KT P6SM FEW050
     FM172300 19006KT P6SM FEW050
     FM180600 18005KT P6SM BKN060
     FM180900 VRB03KT 3SM BR BKN015
     FM181500 21005KT P6SM BKN050
     FM181700 25009KT P6SM BKN050=



000
FTUS41 KBOX 172016 AAA
TAFBDL
TAF AMD
KBDL 172016Z 1720/1824 19010G17KT P6SM FEW050
     FM172300 19006KT P6SM FEW050
     FM180600 18005KT P6SM BKN060
     FM180900 VRB03KT 3SM BR BKN015
     FM181500 21005KT P6SM BKN050
     FM181700 25009KT P6SM BKN050=



000
FTUS41 KBOX 172016 AAA
TAFBDL
TAF AMD
KBDL 172016Z 1720/1824 19010G17KT P6SM FEW050
     FM172300 19006KT P6SM FEW050
     FM180600 18005KT P6SM BKN060
     FM180900 VRB03KT 3SM BR BKN015
     FM181500 21005KT P6SM BKN050
     FM181700 25009KT P6SM BKN050=



000
FTUS41 KBOX 172015 AAA
TAFBOS
TAF AMD
KBOS 172015Z 1720/1824 23011G21KT P6SM SCT050
     FM172230 22009KT P6SM FEW200
     FM181000 20007KT P6SM BKN015
     FM181400 22010G19KT P6SM BKN050
     FM182100 26010G18KT P6SM BKN050=



000
FTUS41 KBOX 172015 AAA
TAFBOS
TAF AMD
KBOS 172015Z 1720/1824 23011G21KT P6SM SCT050
     FM172230 22009KT P6SM FEW200
     FM181000 20007KT P6SM BKN015
     FM181400 22010G19KT P6SM BKN050
     FM182100 26010G18KT P6SM BKN050=



000
FTUS41 KBOX 172015 AAA
TAFBOS
TAF AMD
KBOS 172015Z 1720/1824 23011G21KT P6SM SCT050
     FM172230 22009KT P6SM FEW200
     FM181000 20007KT P6SM BKN015
     FM181400 22010G19KT P6SM BKN050
     FM182100 26010G18KT P6SM BKN050=



000
FTUS41 KBOX 172015 AAA
TAFBOS
TAF AMD
KBOS 172015Z 1720/1824 23011G21KT P6SM SCT050
     FM172230 22009KT P6SM FEW200
     FM181000 20007KT P6SM BKN015
     FM181400 22010G19KT P6SM BKN050
     FM182100 26010G18KT P6SM BKN050=



000
FTUS41 KBOX 171737
TAFBOS
TAF
KBOS 171737Z 1718/1824 23014G23KT P6SM SCT050
     FM180000 22009KT P6SM FEW200
     FM181000 20007KT P6SM BKN015
     FM181400 22010G19KT P6SM BKN050
     FM182100 26010G18KT P6SM BKN050=



000
FTUS41 KBOX 171737
TAFMHT
TAF
KMHT 171737Z 1718/1818 23009G16KT P6SM SCT040
     FM172300 19005KT P6SM FEW050 SCT200
     FM180700 VRB03KT P6SM BKN080
     FM180900 00000KT 3SM BR BKN015
     FM181400 VRB03KT P6SM BKN045=



000
FTUS41 KBOX 171737
TAFPVD
TAF
KPVD 171737Z 1718/1818 24013G20KT P6SM SCT050
     FM172200 21008KT P6SM FEW050 FEW200
     FM180300 21004KT P6SM SCT200
     FM180900 20005KT 4SM BR BKN015
     FM181400 23010G20KT P6SM SCT090=



000
FTUS41 KBOX 171737
TAFBDL
TAF
KBDL 171737Z 1718/1824 21010G16KT P6SM SCT050
     FM172300 18006KT P6SM FEW050 SCT200
     FM180600 18005KT P6SM BKN060
     FM180900 VRB03KT 3SM BR BKN015
     FM181500 21005KT P6SM BKN050
     FM181700 25009KT P6SM BKN050=



000
FTUS41 KBOX 171737
TAFACK
TAF
KACK 171737Z 1718/1818 24016G24KT P6SM FEW200
     FM172200 22010G18KT P6SM FEW200 FEW250
     FM180600 21007KT P6SM SCT200
     FM180900 22007KT 4SM BR BKN015
     FM181400 20010G18KT P6SM SCT250=



000
FTUS41 KBOX 171737
TAFBAF
TAF
KBAF 171737Z 1718/1818 23009G15KT P6SM SCT050
     FM172300 19005KT P6SM FEW050
     FM180100 18004KT P6SM SCT200
     FM180400 18004KT P6SM BKN080
     FM180800 VRB03KT 3SM BR BKN015
     FM181400 22004KT P6SM BKN250
     FM181700 26009KT P6SM BKN050=



000
FTUS41 KBOX 171737
TAFORH
TAF
KORH 171737Z 1718/1818 24011G18KT P6SM SCT040
     FM172300 22007KT P6SM FEW050 SCT200
     FM180600 22007KT P6SM SCT008
     FM180800 22006KT 3SM BR BKN008
     FM181400 22007KT P6SM BKN035
     FM181700 25010G18KT P6SM BKN050=



000
FTUS41 KBOX 171737
TAFORH
TAF
KORH 171737Z 1718/1818 24011G18KT P6SM SCT040
     FM172300 22007KT P6SM FEW050 SCT200
     FM180600 22007KT P6SM SCT008
     FM180800 22006KT 3SM BR BKN008
     FM181400 22007KT P6SM BKN035
     FM181700 25010G18KT P6SM BKN050=



000
FTUS41 KBOX 171737
TAFBAF
TAF
KBAF 171737Z 1718/1818 23009G15KT P6SM SCT050
     FM172300 19005KT P6SM FEW050
     FM180100 18004KT P6SM SCT200
     FM180400 18004KT P6SM BKN080
     FM180800 VRB03KT 3SM BR BKN015
     FM181400 22004KT P6SM BKN250
     FM181700 26009KT P6SM BKN050=



000
FTUS41 KBOX 171737
TAFPVD
TAF
KPVD 171737Z 1718/1818 24013G20KT P6SM SCT050
     FM172200 21008KT P6SM FEW050 FEW200
     FM180300 21004KT P6SM SCT200
     FM180900 20005KT 4SM BR BKN015
     FM181400 23010G20KT P6SM SCT090=



000
FTUS41 KBOX 171737
TAFMHT
TAF
KMHT 171737Z 1718/1818 23009G16KT P6SM SCT040
     FM172300 19005KT P6SM FEW050 SCT200
     FM180700 VRB03KT P6SM BKN080
     FM180900 00000KT 3SM BR BKN015
     FM181400 VRB03KT P6SM BKN045=



000
FTUS41 KBOX 171737
TAFBOS
TAF
KBOS 171737Z 1718/1824 23014G23KT P6SM SCT050
     FM180000 22009KT P6SM FEW200
     FM181000 20007KT P6SM BKN015
     FM181400 22010G19KT P6SM BKN050
     FM182100 26010G18KT P6SM BKN050=



000
FTUS41 KBOX 171737
TAFACK
TAF
KACK 171737Z 1718/1818 24016G24KT P6SM FEW200
     FM172200 22010G18KT P6SM FEW200 FEW250
     FM180600 21007KT P6SM SCT200
     FM180900 22007KT 4SM BR BKN015
     FM181400 20010G18KT P6SM SCT250=



000
FTUS41 KBOX 171737
TAFBDL
TAF
KBDL 171737Z 1718/1824 21010G16KT P6SM SCT050
     FM172300 18006KT P6SM FEW050 SCT200
     FM180600 18005KT P6SM BKN060
     FM180900 VRB03KT 3SM BR BKN015
     FM181500 21005KT P6SM BKN050
     FM181700 25009KT P6SM BKN050=



000
FTUS41 KBOX 171349 AAA
TAFPVD
TAF AMD
KPVD 171349Z 1714/1812 22008KT P6SM FEW020 SCT050
     FM171600 23011G21KT P6SM SCT050
     FM172300 21009KT P6SM FEW200
     FM180800 20005KT P6SM SCT200
     FM181000 20006KT P6SM BKN080=



000
FTUS41 KBOX 171349 AAA
TAFPVD
TAF AMD
KPVD 171349Z 1714/1812 22008KT P6SM FEW020 SCT050
     FM171600 23011G21KT P6SM SCT050
     FM172300 21009KT P6SM FEW200
     FM180800 20005KT P6SM SCT200
     FM181000 20006KT P6SM BKN080=



000
FTUS41 KBOX 171348 AAA
TAFMHT
TAF AMD
KMHT 171348Z 1714/1812 20007KT 5SM BR FEW003 BKN050
     FM171415 21008KT P6SM SCT050
     FM171600 22008G15KT P6SM SCT050
     FM172300 20007KT P6SM SCT200
     FM180700 VRB03KT P6SM BKN080
     FM180900 VRB03KT 5SM BR BKN060=



000
FTUS41 KBOX 171348 AAA
TAFMHT
TAF AMD
KMHT 171348Z 1714/1812 20007KT 5SM BR FEW003 BKN050
     FM171415 21008KT P6SM SCT050
     FM171600 22008G15KT P6SM SCT050
     FM172300 20007KT P6SM SCT200
     FM180700 VRB03KT P6SM BKN080
     FM180900 VRB03KT 5SM BR BKN060=



000
FTUS41 KBOX 171347 AAA
TAFBDL
TAF AMD
KBDL 171347Z 1714/1818 22006KT P6SM FEW020 BKN100
     FM171600 22009G17KT P6SM SCT050
     FM172300 20008KT P6SM SCT200
     FM180600 18004KT P6SM BKN060
     FM180900 19004KT 3SM BR BKN060
     FM181300 20006KT P6SM BKN050=



000
FTUS41 KBOX 171347 AAA
TAFBDL
TAF AMD
KBDL 171347Z 1714/1818 22006KT P6SM FEW020 BKN100
     FM171600 22009G17KT P6SM SCT050
     FM172300 20008KT P6SM SCT200
     FM180600 18004KT P6SM BKN060
     FM180900 19004KT 3SM BR BKN060
     FM181300 20006KT P6SM BKN050=



000
FTUS41 KBOX 171345 AAA
TAFBOS
TAF AMD
KBOS 171345Z 1714/1818 22011G18KT P6SM FEW006 SCT070
     FM171600 23012G22KT P6SM SCT050
     FM172300 21010KT P6SM FEW200
     FM181000 20008KT P6SM BKN090
     FM181700 22011G19KT P6SM BKN050=



    US Dept of Commerce
    National Oceanic and Atmospheric Administration
    National Weather Service
    1325 East West Highway
    Silver Spring, MD 20910
    Page Author: NWS Internet Services Team
Disclaimer
Information Quality
Credits
Glossary
Privacy Policy
Freedom of Information Act (FOIA)
About Us
Career Opportunities